MENDUMS POND: From 06/20/2019 00:00 to 08/22/2019 00:00

Date LAKE ELEVATION [FT] PRECIPITATION INCREMENT [IN] WATER TEMPERATURE [F] PRECIPITATION TOTAL [IN] AIR TEMPERATURE [F] RESERVOIR RELEASE [CFS]
08/19/2019 21:00 224.59 0.00 58.5 -- 73.3 3.0
08/19/2019 20:00 224.59 0.00 59.0 -- 75.7 3.0
08/19/2019 19:00 224.58 0.00 58.0 -- 77.4 3.8
08/19/2019 18:00 224.61 0.00 58.8 -- 77.8 3.5
08/19/2019 17:00 224.55 0.06 58.3 -- 74.8 1.5
08/19/2019 16:00 224.58 0.00 59.0 -- 89.8 3.0
08/19/2019 15:00 224.58 0.00 59.1 -- 88.3 2.8
08/19/2019 14:00 224.58 0.00 59.1 -- 85.2 3.0
08/19/2019 13:00 224.58 0.00 58.9 -- 84.5 2.8
08/19/2019 12:00 224.57 0.00 58.9 -- 80.7 2.5
08/19/2019 11:00 224.58 0.00 59.5 -- 78.2 3.0
08/19/2019 10:00 224.59 0.00 58.4 -- 74.3 2.8
08/19/2019 09:00 224.58 0.00 58.2 -- 70.7 3.0
08/19/2019 08:00 224.59 0.00 59.2 -- 69.0 3.0
08/19/2019 07:00 224.58 0.00 58.4 -- 68.3 3.0
08/19/2019 06:00 224.59 0.00 58.5 -- 68.1 3.0
08/19/2019 05:00 224.58 0.00 58.9 -- 68.2 3.0
08/19/2019 04:00 224.58 0.01 59.2 -- 68.2 3.0
08/19/2019 03:00 224.58 0.00 58.6 -- 68.7 3.0
08/19/2019 02:00 224.59 0.00 58.5 -- 69.2 3.0
08/19/2019 01:00 224.58 0.00 59.4 -- 69.2 3.0
08/19/2019 00:00 224.59 0.00 58.8 -- 68.9 3.0
08/18/2019 23:00 224.59 0.00 58.9 -- 68.7 3.0
08/18/2019 22:00 224.59 0.00 58.3 -- 69.4 3.0
08/18/2019 21:00 224.59 0.00 59.3 -- 71.7 3.0
08/18/2019 20:00 224.59 0.00 58.9 -- 73.9 3.0
08/18/2019 19:00 224.59 0.00 59.1 -- 79.4 3.0
08/18/2019 18:00 224.59 0.00 58.3 -- 85.4 3.0
08/18/2019 17:00 224.59 0.00 59.3 -- 87.5 3.3
08/18/2019 16:00 224.59 0.00 59.0 -- 84.8 3.0
08/18/2019 15:00 224.59 0.00 58.9 -- 84.5 3.3
08/18/2019 14:00 224.59 0.00 58.5 -- 84.0 3.3
08/18/2019 13:00 224.60 0.00 58.9 -- 80.0 4.0
08/18/2019 12:00 224.59 0.00 58.6 -- 79.4 3.0
08/18/2019 11:00 224.60 0.00 58.6 -- 73.5 3.8
08/18/2019 10:00 224.59 0.00 59.1 -- 69.2 3.5
08/18/2019 09:00 224.60 0.00 58.4 -- 67.5 4.0
08/18/2019 08:00 224.60 0.00 58.9 -- 65.5 3.8
08/18/2019 07:00 224.59 0.00 58.7 -- 64.7 3.5
08/18/2019 06:00 224.60 0.00 59.1 -- 64.6 4.0
08/18/2019 05:00 224.60 0.00 58.5 -- 64.6 4.0
08/18/2019 04:00 224.60 0.00 58.6 -- 66.0 4.0
08/18/2019 03:00 224.60 0.00 59.4 -- 66.3 4.0
08/18/2019 02:00 224.60 0.00 58.5 -- 66.4 3.3
08/18/2019 01:00 224.59 0.23 58.7 -- 66.3 3.5
08/18/2019 00:00 224.58 0.45 58.9 0.23 66.6 1.5
08/17/2019 23:00 224.52 0.00 58.6 -- 67.0 0.8
08/17/2019 22:00 224.53 0.00 58.6 -- 66.9 1.0
08/17/2019 21:00 224.53 0.00 58.2 -- 67.6 0.8
08/17/2019 20:00 224.53 0.00 58.8 -- 69.2 1.0
08/17/2019 19:00 224.53 0.00 58.9 -- 71.3 0.5
08/17/2019 18:00 224.53 0.00 58.4 -- 74.1 1.0
08/17/2019 17:00 224.53 0.00 58.4 -- 71.7 1.0
08/17/2019 16:00 224.53 0.00 58.9 -- 69.3 1.0
08/17/2019 15:00 224.53 0.00 58.6 -- 68.9 1.0
08/17/2019 14:00 224.53 0.00 58.8 -- 68.4 1.0
08/17/2019 13:00 224.53 0.00 58.5 -- 69.7 1.0
08/17/2019 12:00 224.53 0.00 58.4 -- 70.0 1.0
08/17/2019 11:00 224.53 0.00 58.7 -- 68.4 1.0
08/17/2019 10:00 224.53 0.00 58.5 -- 67.2 1.0
08/17/2019 09:00 224.53 0.00 58.4 -- 65.8 1.0
08/17/2019 08:00 224.53 0.00 58.6 -- 65.0 1.0
08/17/2019 07:00 224.53 0.00 58.8 -- 64.6 1.0
08/17/2019 06:00 224.54 0.00 58.6 -- 64.9 1.0
08/17/2019 05:00 224.54 0.00 58.5 -- 65.1 1.0
08/17/2019 04:00 224.54 0.00 58.5 -- 65.4 1.0
08/17/2019 03:00 224.53 0.00 58.7 -- 65.2 1.0
08/17/2019 02:00 224.54 0.00 58.3 -- 65.5 1.0
08/17/2019 01:00 224.54 0.00 58.6 -- 65.5 1.0
08/17/2019 00:00 224.53 0.00 58.6 0.45 65.2 1.0
08/16/2019 23:00 224.54 0.00 58.9 -- 64.6 1.0
08/16/2019 22:00 224.54 0.00 58.6 -- 65.1 1.0
08/16/2019 21:00 224.54 0.00 58.4 -- 66.1 1.0
08/16/2019 20:00 224.54 0.00 58.4 -- 67.8 1.0
08/16/2019 19:00 224.54 0.00 58.1 -- 71.9 1.0
08/16/2019 18:00 224.54 0.00 58.2 -- 74.4 1.0
08/16/2019 17:00 224.54 0.00 58.4 -- 76.4 1.0
08/16/2019 16:00 224.54 0.00 58.1 -- 76.8 1.0
08/16/2019 15:00 224.55 0.00 58.7 -- 77.0 1.0
08/16/2019 14:00 224.54 0.00 58.1 -- 76.6 1.0
08/16/2019 13:00 224.55 0.00 58.7 -- 75.7 1.0
08/16/2019 12:00 224.55 0.00 58.5 -- 72.5 1.0
08/16/2019 11:00 224.55 0.00 58.4 -- 70.1 1.0
08/16/2019 10:00 224.54 0.00 58.2 -- 64.9 1.0
08/16/2019 09:00 224.55 0.00 58.6 -- 63.4 1.0
08/16/2019 08:00 224.55 0.00 58.5 -- 63.2 1.0
08/16/2019 07:00 224.55 0.00 58.5 -- 63.3 1.0
08/16/2019 06:00 224.54 0.00 58.2 -- 63.3 1.0
08/16/2019 05:00 224.55 0.00 58.6 -- 63.0 1.0
08/16/2019 04:00 224.55 0.00 58.5 -- 62.6 1.0
08/16/2019 03:00 224.55 0.00 58.2 -- 62.4 1.0
08/16/2019 02:00 224.55 0.00 58.5 -- 62.1 1.0
08/16/2019 01:00 224.55 0.00 58.6 -- 61.8 1.0
08/16/2019 00:00 224.55 0.00 58.3 0.00 61.5 1.0
08/15/2019 23:00 224.55 0.00 58.4 -- 62.1 1.0
08/15/2019 22:00 224.55 0.00 58.1 -- 63.4 1.0
08/15/2019 21:00 224.55 0.00 58.3 -- 66.4 1.0
08/15/2019 20:00 224.55 0.00 58.6 -- 70.1 1.3
08/15/2019 19:00 224.56 0.00 58.4 -- 74.0 2.0
08/15/2019 18:00 224.55 0.00 57.9 -- 76.3 1.3
08/15/2019 17:00 224.56 0.00 58.8 -- 78.4 2.0
08/15/2019 16:00 224.55 0.00 58.8 -- 78.7 2.0
08/15/2019 15:00 224.56 0.00 58.3 -- 76.0 1.8
08/15/2019 14:00 224.55 0.00 58.4 -- 74.7 2.0
08/15/2019 13:00 224.56 0.00 58.7 -- 72.7 2.0
08/15/2019 12:00 224.56 0.00 58.2 -- 71.1 2.0
08/15/2019 11:00 224.55 0.00 58.1 -- 69.5 1.8
08/15/2019 10:00 224.56 0.00 58.7 -- 65.6 2.0
08/15/2019 09:00 224.56 0.00 58.2 -- 63.1 2.0
08/15/2019 08:00 224.56 0.00 58.2 -- 56.9 2.0
08/15/2019 07:00 224.56 0.00 58.4 -- 55.8 2.0
08/15/2019 06:00 224.56 0.00 58.2 -- 56.0 2.0
08/15/2019 05:00 224.56 0.00 58.2 -- 57.3 2.0
08/15/2019 04:00 224.57 0.00 58.4 -- 57.5 2.0
08/15/2019 03:00 224.57 0.00 58.3 -- 58.4 2.0
08/15/2019 02:00 224.57 0.00 58.3 -- 59.1 2.0
08/15/2019 01:00 224.57 0.00 58.3 -- 59.6 2.0
08/15/2019 00:00 224.57 0.00 58.3 0.00 60.5 2.0
08/14/2019 23:00 224.57 0.00 58.3 -- 61.8 2.0
08/14/2019 22:00 224.57 0.00 58.0 -- 64.2 2.0
08/14/2019 21:00 224.57 0.00 58.6 -- 66.8 2.0
08/14/2019 20:00 224.57 0.00 58.2 -- 70.8 2.5
08/14/2019 19:00 224.57 0.00 58.1 -- 75.2 2.5
08/14/2019 18:00 224.58 0.00 57.6 -- 77.3 2.8
08/14/2019 17:00 224.57 0.00 58.8 -- 77.9 2.3
08/14/2019 16:00 224.57 0.00 57.8 -- 78.9 2.3
08/14/2019 15:00 224.57 0.00 58.1 -- 77.5 2.3
08/14/2019 14:00 224.58 0.00 58.2 -- 75.0 3.0
08/14/2019 13:00 224.58 0.00 57.9 -- 74.9 3.0
08/14/2019 12:00 224.58 0.00 58.2 -- 73.3 3.0
08/14/2019 11:00 224.58 0.00 58.2 -- 69.7 3.0
08/14/2019 10:00 224.59 0.00 58.0 -- 65.3 3.0
08/14/2019 09:00 224.58 0.00 58.0 -- 60.5 3.0
08/14/2019 08:00 224.58 0.00 58.2 -- 59.3 3.0
08/14/2019 07:00 224.58 0.00 58.1 -- 59.5 3.0
08/14/2019 06:00 224.58 0.00 58.1 -- 61.2 3.0
08/14/2019 05:00 224.58 0.00 57.5 -- 63.0 3.0
08/14/2019 04:00 224.59 0.00 59.0 -- 65.2 3.0
08/14/2019 03:00 224.59 0.00 58.0 -- 63.6 3.3
08/14/2019 02:00 224.58 0.00 58.1 -- 65.3 2.5
08/14/2019 01:00 224.59 0.00 57.7 -- 65.4 3.0
08/14/2019 00:00 224.59 0.00 57.9 0.00 66.5 3.0
08/13/2019 23:00 224.58 0.00 58.8 -- 67.0 3.0
08/13/2019 22:00 224.59 0.00 58.6 -- 67.8 3.0
08/13/2019 21:00 224.59 0.03 58.7 -- 67.9 3.0
08/13/2019 20:00 224.59 0.65 58.5 -- 67.5 2.0
08/13/2019 19:00 224.52 0.00 58.4 -- 77.3 0.0
08/13/2019 18:00 224.52 0.00 59.0 -- 76.8 0.0
08/13/2019 17:00 224.51 0.00 58.6 -- 80.5 0.0
08/13/2019 16:00 224.51 0.00 58.4 -- 80.6 0.0
08/13/2019 15:00 224.52 0.00 58.9 -- 79.0 0.0
08/13/2019 14:00 224.51 0.00 58.5 -- 75.6 0.0
08/13/2019 13:00 224.52 0.00 58.7 -- 77.8 0.0
08/13/2019 12:00 224.52 0.00 58.7 -- 78.6 0.0
08/13/2019 11:00 224.51 0.00 58.4 -- 78.6 0.0
08/13/2019 10:00 224.52 0.00 58.4 -- 76.1 0.0
08/13/2019 09:00 224.52 0.00 58.6 -- 69.1 0.0
08/13/2019 08:00 224.51 0.00 58.6 -- 65.8 0.0
08/13/2019 07:00 224.52 0.00 58.4 -- 65.4 0.0
08/13/2019 06:00 224.52 0.00 58.5 -- 65.7 0.0
08/13/2019 05:00 224.52 0.00 58.8 -- 65.9 0.0
08/13/2019 04:00 224.51 0.00 58.5 -- 65.1 0.0
08/13/2019 03:00 224.52 0.00 58.7 -- 66.5 0.0
08/13/2019 02:00 224.52 0.00 58.6 -- 66.9 0.0
08/13/2019 01:00 224.51 0.00 58.6 -- 66.1 0.0
08/13/2019 00:00 224.52 0.00 58.9 0.68 65.0 0.0
08/12/2019 23:00 224.52 0.00 58.1 -- 65.7 0.0
08/12/2019 22:00 224.52 0.00 58.8 -- 67.3 0.0
08/12/2019 21:00 224.52 0.00 58.6 -- 70.8 0.0
08/12/2019 20:00 224.52 0.00 58.5 -- 77.4 0.0
08/12/2019 19:00 224.52 0.00 58.5 -- 83.5 0.0
08/12/2019 18:00 224.52 0.00 58.1 -- 82.9 0.0
08/12/2019 17:00 224.52 0.00 58.7 -- 82.5 0.0
08/12/2019 16:00 224.52 0.00 58.5 -- 83.4 0.0
08/12/2019 15:00 224.52 0.00 58.6 -- 83.4 0.3
08/12/2019 14:00 224.52 0.00 58.3 -- 82.0 0.0
08/12/2019 13:00 224.53 0.00 58.5 -- 80.1 0.3
08/12/2019 12:00 224.52 0.00 57.9 -- 78.3 0.0
08/12/2019 11:00 224.52 0.00 58.7 -- 73.5 0.3
08/12/2019 10:00 224.52 0.00 58.5 -- 67.0 0.0
08/12/2019 09:00 224.52 0.00 58.1 -- 64.4 0.0
08/12/2019 08:00 224.52 0.00 58.8 -- 59.5 0.8
08/12/2019 07:00 224.53 0.00 58.4 -- 59.6 0.8
08/12/2019 06:00 224.52 0.00 58.1 -- 56.5 0.3
08/12/2019 05:00 224.53 0.00 58.4 -- 58.0 0.5
08/12/2019 04:00 224.52 0.00 58.6 -- 59.4 0.3
08/12/2019 03:00 224.52 0.00 57.8 -- 58.4 0.3
08/12/2019 02:00 224.53 0.00 58.4 -- 57.7 1.0
08/12/2019 01:00 224.53 0.00 58.5 -- 58.6 0.8
08/12/2019 00:00 224.53 0.00 58.4 0.00 58.3 0.8
08/11/2019 23:00 224.52 0.00 58.3 -- 59.9 0.8
08/11/2019 22:00 224.53 0.00 57.8 -- 62.1 1.0
08/11/2019 21:00 224.53 0.00 58.2 -- 65.1 1.0
08/11/2019 20:00 224.53 0.00 58.5 -- 70.3 0.8
08/11/2019 19:00 224.52 0.00 58.0 -- 74.5 0.8
08/11/2019 18:00 224.53 0.00 58.6 -- 77.1 1.0
08/11/2019 17:00 224.53 0.00 58.1 -- 77.4 0.8
08/11/2019 16:00 224.52 0.00 58.4 -- 76.4 0.8
08/11/2019 15:00 224.53 0.00 58.7 -- 74.0 0.8
08/11/2019 14:00 224.53 0.00 58.0 -- 72.1 1.0
08/11/2019 13:00 224.54 0.00 58.2 -- 74.2 1.0
08/11/2019 12:00 224.53 0.00 58.7 -- 71.0 0.8
08/11/2019 11:00 224.53 0.00 58.5 -- 68.6 1.0
08/11/2019 10:00 224.54 0.00 58.0 -- 64.8 1.0
08/11/2019 09:00 224.53 0.00 58.4 -- 61.3 1.0
08/11/2019 08:00 224.54 0.00 58.5 -- 53.7 1.0
08/11/2019 07:00 224.53 0.00 58.6 -- 52.1 1.0
08/11/2019 06:00 224.54 0.00 58.3 -- 54.0 1.0
08/11/2019 05:00 224.54 0.00 57.9 -- 54.9 1.0
08/11/2019 04:00 224.54 0.00 58.3 -- 54.9 1.0
08/11/2019 03:00 224.54 0.00 58.5 -- 55.6 1.0
08/11/2019 02:00 224.54 0.00 58.3 -- 56.7 1.0
08/11/2019 01:00 224.55 0.00 57.7 -- 58.1 1.0
08/11/2019 00:00 224.54 0.00 58.2 0.00 56.8 1.0
08/10/2019 23:00 224.54 0.00 58.2 -- 60.9 1.0
08/10/2019 22:00 224.54 0.00 58.2 -- 64.3 1.0
08/10/2019 21:00 224.54 0.00 58.1 -- 66.9 1.0
08/10/2019 20:00 224.54 0.00 58.1 -- 70.1 1.0
08/10/2019 19:00 224.54 0.00 58.8 -- 72.3 1.0
08/10/2019 18:00 224.55 0.00 58.9 -- 74.2 1.3
08/10/2019 17:00 224.56 0.00 59.3 -- 74.0 1.5
08/10/2019 16:00 224.54 0.00 58.8 -- 73.6 1.3
08/10/2019 15:00 224.56 0.00 58.8 -- 66.5 1.3
08/10/2019 14:00 224.57 0.00 58.6 -- 75.3 1.5
08/10/2019 13:00 224.55 0.00 57.7 -- 74.4 1.3
08/10/2019 12:00 224.56 0.00 58.5 -- 72.8 1.8
08/10/2019 11:00 224.56 0.00 57.9 -- 71.2 2.0
08/10/2019 10:00 224.56 0.00 58.5 -- 68.2 2.0
08/10/2019 09:00 224.57 0.00 58.3 -- 63.0 2.0
08/10/2019 08:00 224.56 0.00 58.1 -- 61.0 2.0
08/10/2019 07:00 224.56 0.00 58.3 -- 59.7 2.0
08/10/2019 06:00 224.56 0.00 58.5 -- 60.1 2.0
08/10/2019 05:00 224.56 0.00 57.9 -- 59.3 2.0
08/10/2019 04:00 224.56 0.00 58.1 -- 58.7 2.0
08/10/2019 03:00 224.56 0.00 58.3 -- 58.2 2.0
08/10/2019 02:00 224.56 0.00 58.2 -- 59.7 2.0
08/10/2019 01:00 224.56 0.00 58.4 -- 61.8 2.0
08/10/2019 00:00 224.56 0.00 57.8 0.00 63.4 2.0
08/09/2019 23:00 224.56 0.00 58.0 -- 64.3 2.0
08/09/2019 22:00 224.57 0.00 58.2 -- 64.7 2.0
08/09/2019 21:00 224.57 0.00 58.3 -- 68.8 2.0
08/09/2019 20:00 224.57 0.00 58.0 -- 74.8 2.0
08/09/2019 19:00 224.57 0.00 58.4 -- 79.4 2.0
08/09/2019 18:00 224.57 0.00 58.7 -- 81.2 2.0
08/09/2019 17:00 224.57 0.00 58.6 -- 80.5 2.8
08/09/2019 16:00 224.58 0.00 57.6 -- 80.9 3.0
08/09/2019 15:00 224.58 0.00 58.3 -- 82.2 2.5
08/09/2019 14:00 224.57 0.00 57.9 -- 79.3 2.3
08/09/2019 13:00 224.57 0.00 57.9 -- 77.5 2.8
08/09/2019 12:00 224.58 0.00 58.4 -- 77.0 2.3
08/09/2019 11:00 224.57 0.00 58.3 -- 74.6 2.8
08/09/2019 10:00 224.57 0.00 58.2 -- 72.0 2.5
08/09/2019 09:00 224.58 0.00 58.3 -- 68.2 2.5
08/09/2019 08:00 224.57 0.00 58.0 -- 62.7 2.8
08/09/2019 07:00 224.58 0.00 58.3 -- 60.6 3.0
08/09/2019 06:00 224.58 0.00 58.0 -- 61.8 3.0
08/09/2019 05:00 224.58 0.00 58.0 -- 62.5 3.0
08/09/2019 04:00 224.58 0.00 58.6 -- 64.0 3.0
08/09/2019 03:00 224.58 0.00 58.0 -- 65.1 3.0
08/09/2019 02:00 224.58 0.00 57.7 -- 66.0 3.0
08/09/2019 01:00 224.58 0.00 58.3 -- 66.0 2.5
08/09/2019 00:00 224.58 0.00 57.8 0.00 67.5 3.3
08/08/2019 23:00 224.58 0.00 58.1 -- 68.2 3.0
08/08/2019 22:00 224.58 0.00 58.1 -- 70.1 3.3
08/08/2019 21:00 224.58 0.00 58.1 -- 73.2 3.0
08/08/2019 20:00 224.58 0.00 58.1 -- 74.7 3.0
08/08/2019 19:00 224.58 0.00 58.0 -- 83.5 3.0
08/08/2019 18:00 224.59 0.00 58.0 -- 84.5 3.0
08/08/2019 17:00 224.58 0.00 58.3 -- 83.3 3.0
08/08/2019 16:00 224.58 0.00 58.1 -- 83.1 3.0
08/08/2019 15:00 224.59 0.00 57.8 -- 80.8 3.0
08/08/2019 14:00 224.58 0.04 57.9 -- 75.5 3.0
08/08/2019 13:00 224.58 0.00 58.2 -- 77.3 2.8
08/08/2019 12:00 224.59 0.00 58.0 -- 74.7 3.0
08/08/2019 11:00 224.59 0.00 58.1 -- 71.6 3.0
08/08/2019 10:00 224.58 0.00 57.9 -- 70.7 3.0
08/08/2019 09:00 224.59 0.01 58.3 -- 68.9 3.0
08/08/2019 08:00 224.58 0.00 57.5 -- 67.7 3.0
08/08/2019 07:00 224.59 0.00 58.0 -- 67.3 3.0
08/08/2019 06:00 224.59 0.00 58.1 -- 67.1 3.0
08/08/2019 05:00 224.58 0.00 58.0 -- 66.9 3.0
08/08/2019 04:00 224.58 0.10 57.7 -- 66.7 3.0
08/08/2019 03:00 224.57 0.21 57.4 -- 67.1 2.0
08/08/2019 02:00 224.56 0.03 58.4 -- 67.3 2.0
08/08/2019 01:00 224.56 0.12 58.1 -- 67.8 1.8
08/08/2019 00:00 224.54 0.09 57.8 0.51 68.5 0.5
08/07/2019 23:00 224.53 0.06 57.8 -- 69.5 0.8
08/07/2019 22:00 224.53 0.00 57.8 -- 69.6 1.0
08/07/2019 21:00 224.52 0.00 57.7 -- 71.0 0.3
08/07/2019 20:00 224.53 0.00 57.2 -- 72.0 1.0
08/07/2019 19:00 224.54 0.00 58.2 -- 73.4 1.0
08/07/2019 18:00 224.53 0.02 58.1 -- 72.3 0.5
08/07/2019 17:00 224.53 0.60 58.1 -- 68.5 0.3
08/07/2019 16:00 224.49 0.00 58.2 -- 85.6 0.0
08/07/2019 15:00 224.49 0.00 58.3 -- 82.8 0.0
08/07/2019 14:00 224.49 0.00 58.3 -- 80.7 0.0
08/07/2019 13:00 224.48 0.00 57.9 -- 80.3 0.0
08/07/2019 12:00 224.49 0.00 58.4 -- 76.6 0.0
08/07/2019 11:00 224.49 0.00 58.2 -- 73.2 0.0
08/07/2019 10:00 224.49 0.00 58.0 -- 72.0 0.0
08/07/2019 09:00 224.49 0.00 58.2 -- 67.3 0.0
08/07/2019 08:00 224.48 0.00 58.1 -- 65.3 0.0
08/07/2019 07:00 224.49 0.00 58.1 -- 64.9 0.0
08/07/2019 06:00 224.49 0.00 58.5 -- 65.3 0.0
08/07/2019 05:00 224.49 0.00 58.3 -- 65.8 0.0
08/07/2019 04:00 224.49 0.00 57.6 -- 66.1 0.0
08/07/2019 03:00 224.49 0.00 58.9 -- 66.3 0.0
08/07/2019 02:00 224.49 0.00 57.9 -- 66.3 0.0
08/07/2019 01:00 224.49 0.00 58.2 -- 66.8 0.0
08/07/2019 00:00 224.49 0.00 58.2 0.77 67.0 0.0
08/06/2019 23:00 224.49 0.00 58.1 -- 66.2 0.0
08/06/2019 22:00 224.49 0.00 57.9 -- 68.1 0.0
08/06/2019 21:00 224.49 0.00 58.3 -- 70.8 0.0
08/06/2019 20:00 224.49 0.00 58.0 -- 75.8 0.0
08/06/2019 19:00 224.49 0.00 58.5 -- 74.0 0.0
08/06/2019 18:00 224.49 0.00 57.9 -- 79.3 0.0
08/06/2019 17:00 224.49 0.00 58.3 -- 77.6 0.0
08/06/2019 16:00 224.49 0.00 57.9 -- 77.0 0.0
08/06/2019 15:00 224.49 0.00 58.2 -- 79.7 0.0
08/06/2019 14:00 224.49 0.00 57.9 -- 82.6 0.0
08/06/2019 13:00 224.49 0.00 57.9 -- 79.8 0.0
08/06/2019 12:00 224.49 0.00 58.0 -- 77.8 0.0
08/06/2019 11:00 224.49 0.00 58.3 -- 74.2 0.0
08/06/2019 10:00 224.50 0.00 57.8 -- 68.7 0.0
08/06/2019 09:00 224.49 0.00 58.2 -- 60.9 0.0
08/06/2019 08:00 224.49 0.00 58.3 -- 54.7 0.0
08/06/2019 07:00 224.50 0.00 57.6 -- 53.2 0.0
08/06/2019 06:00 224.50 0.00 58.1 -- 53.6 0.0
08/06/2019 05:00 224.50 0.00 58.2 -- 54.4 0.0
08/06/2019 04:00 224.50 0.00 58.1 -- 55.1 0.0
08/06/2019 03:00 224.49 0.00 58.1 -- 56.3 0.0
08/06/2019 02:00 224.50 0.00 58.0 -- 57.0 0.0
08/06/2019 01:00 224.50 0.00 58.0 -- 58.3 0.0
08/06/2019 00:00 224.50 0.00 58.4 0.00 59.5 0.0
08/05/2019 23:00 224.50 0.00 57.9 -- 60.9 0.0
08/05/2019 22:00 224.50 0.00 57.9 -- 63.0 0.0
08/05/2019 21:00 224.50 0.00 58.1 -- 66.5 0.0
08/05/2019 20:00 224.50 0.00 58.2 -- 74.5 0.0
08/05/2019 19:00 224.50 0.00 58.2 -- 81.9 0.0
08/05/2019 18:00 224.51 0.00 57.5 -- 82.9 0.0
08/05/2019 17:00 224.50 0.00 58.1 -- 80.7 0.0
08/05/2019 16:00 224.51 0.00 57.7 -- 79.8 0.0
08/05/2019 15:00 224.50 0.00 57.2 -- 79.1 0.0
08/05/2019 14:00 224.50 0.00 57.8 -- 77.4 0.0
08/05/2019 13:00 224.51 0.00 57.8 -- 76.3 0.0
08/05/2019 12:00 224.50 0.00 57.8 -- 73.2 0.0
08/05/2019 11:00 224.51 0.00 58.2 -- 71.4 0.0
08/05/2019 10:00 224.51 0.00 58.2 -- 64.7 0.0
08/05/2019 09:00 224.51 0.00 57.7 -- 58.1 0.0
08/05/2019 08:00 224.51 0.00 57.9 -- 52.2 0.0
08/05/2019 07:00 224.51 0.00 58.4 -- 50.1 0.0
08/05/2019 06:00 224.51 0.00 58.0 -- 51.0 0.0
08/05/2019 05:00 224.51 0.00 57.8 -- 51.1 0.0
08/05/2019 04:00 224.51 0.00 57.5 -- 52.1 0.0
08/05/2019 03:00 224.51 0.00 58.4 -- 53.1 0.0
08/05/2019 02:00 224.51 0.00 58.0 -- 54.6 0.0
08/05/2019 01:00 224.51 0.00 57.9 -- 56.5 0.0
08/05/2019 00:00 224.52 0.00 58.0 0.00 57.8 0.0
08/04/2019 23:00 224.52 0.00 58.0 -- 58.7 0.0
08/04/2019 22:00 224.51 0.00 58.3 -- 61.1 0.0
08/04/2019 21:00 224.52 0.00 57.9 -- 65.5 0.0
08/04/2019 20:00 224.52 0.00 58.1 -- 77.3 0.0
08/04/2019 19:00 224.52 0.00 58.2 -- 78.9 0.0
08/04/2019 18:00 224.52 0.00 57.5 -- 81.5 0.3
08/04/2019 17:00 224.52 0.00 57.9 -- 82.3 0.0
08/04/2019 16:00 224.52 0.00 58.0 -- 82.5 0.3
08/04/2019 15:00 224.53 0.00 57.7 -- 79.0 0.5
08/04/2019 14:00 224.52 0.00 57.7 -- 81.0 0.0
08/04/2019 13:00 224.52 0.00 58.1 -- 78.8 0.0
08/04/2019 12:00 224.52 0.00 58.0 -- 73.0 0.0
08/04/2019 11:00 224.52 0.00 57.9 -- 72.6 0.5
08/04/2019 10:00 224.53 0.00 57.9 -- 71.9 1.0
08/04/2019 09:00 224.52 0.00 57.9 -- 68.9 0.5
08/04/2019 08:00 224.53 0.00 57.9 -- 62.5 0.5
08/04/2019 07:00 224.53 0.00 58.2 -- 63.3 0.8
08/04/2019 06:00 224.53 0.00 57.9 -- 63.5 0.5
08/04/2019 05:00 224.53 0.00 57.8 -- 65.2 1.0
08/04/2019 04:00 224.53 0.00 57.9 -- 65.3 1.0
08/04/2019 03:00 224.53 0.00 58.1 -- 66.4 1.0
08/04/2019 02:00 224.53 0.00 57.8 -- 65.5 1.0
08/04/2019 01:00 224.53 0.00 57.7 -- 65.6 0.5
08/04/2019 00:00 224.53 0.00 58.1 0.00 66.2 1.0
08/03/2019 23:00 224.53 0.00 58.2 -- 66.9 1.0
08/03/2019 22:00 224.53 0.00 57.5 -- 68.1 0.8
08/03/2019 21:00 224.53 0.00 58.0 -- 71.3 1.0
08/03/2019 20:00 224.53 0.00 58.3 -- 78.9 0.8
08/03/2019 19:00 224.53 0.00 57.3 -- 81.6 0.8
08/03/2019 18:00 224.54 0.00 58.1 -- 80.8 0.8
08/03/2019 17:00 224.53 0.00 57.6 -- 81.1 1.0
08/03/2019 16:00 224.54 0.00 58.1 -- 78.4 1.0
08/03/2019 15:00 224.53 0.00 58.1 -- 79.9 0.8
08/03/2019 14:00 224.54 0.00 58.3 -- 77.8 1.0
08/03/2019 13:00 224.53 0.01 57.8 -- 73.5 0.5
08/03/2019 12:00 224.51 0.04 57.7 -- 69.6 1.0
08/03/2019 11:00 224.54 0.14 57.8 -- 66.9 0.3
08/03/2019 10:00 224.49 0.00 58.0 -- 68.4 0.0
08/03/2019 09:00 224.49 0.00 57.8 -- 65.5 0.0
08/03/2019 08:00 224.50 0.00 57.9 -- 59.6 0.0
08/03/2019 07:00 224.49 0.00 57.9 -- 57.3 0.0
08/03/2019 06:00 224.49 0.00 57.7 -- 57.0 0.0
08/03/2019 05:00 224.49 0.00 58.0 -- 57.3 0.0
08/03/2019 04:00 224.49 0.00 57.9 -- 58.0 0.0
08/03/2019 03:00 224.50 0.00 57.5 -- 58.4 0.0
08/03/2019 02:00 224.49 0.00 57.8 -- 58.8 0.0
08/03/2019 01:00 224.49 0.00 57.9 -- 59.4 0.0
08/03/2019 00:00 224.49 0.00 57.7 0.19 60.6 0.0
08/02/2019 23:00 224.49 0.00 58.0 -- 62.2 0.0
08/02/2019 22:00 224.50 0.00 57.5 -- 65.0 0.0
08/02/2019 21:00 224.49 0.00 58.1 -- 69.3 0.0
08/02/2019 20:00 224.50 0.00 58.1 -- 76.9 0.0
08/02/2019 19:00 224.50 0.00 57.9 -- 84.4 0.0
08/02/2019 18:00 224.50 0.00 58.1 -- 84.3 0.0
08/02/2019 17:00 224.50 0.00 57.8 -- 84.8 0.0
08/02/2019 16:00 224.50 0.00 57.3 -- 84.3 0.0
08/02/2019 15:00 224.50 0.00 58.0 -- 81.3 0.0
08/02/2019 14:00 224.50 0.00 58.0 -- 81.7 0.0
08/02/2019 13:00 224.50 0.00 57.8 -- 79.3 0.0
08/02/2019 12:00 224.50 0.00 57.7 -- 79.7 0.0
08/02/2019 11:00 224.50 0.00 57.6 -- 76.2 0.0
08/02/2019 10:00 224.50 0.00 58.2 -- 72.6 0.0
08/02/2019 09:00 224.50 0.00 57.8 -- 62.6 0.0
08/02/2019 08:00 224.51 0.00 57.5 -- 56.0 0.0
08/02/2019 07:00 224.51 0.00 57.8 -- 54.0 0.0
08/02/2019 06:00 224.51 0.00 57.9 -- 54.8 0.0
08/02/2019 05:00 224.51 0.00 57.8 -- 55.5 0.0
08/02/2019 04:00 224.51 0.00 57.8 -- 56.1 0.0
08/02/2019 03:00 224.51 0.00 57.5 -- 57.0 0.0
08/02/2019 02:00 224.51 0.00 58.1 -- 58.0 0.0
08/02/2019 01:00 224.51 0.00 57.6 -- 59.3 0.0
08/02/2019 00:00 224.51 0.00 57.5 0.00 61.5 0.0
08/01/2019 23:00 224.51 0.00 57.7 -- 63.2 0.0
08/01/2019 22:00 224.51 0.00 57.9 -- 65.6 0.0
08/01/2019 21:00 224.51 0.00 57.3 -- 69.8 0.0
08/01/2019 20:00 224.51 0.00 57.5 -- 79.3 0.0
08/01/2019 19:00 224.52 0.00 57.9 -- 82.7 0.0
08/01/2019 18:00 224.52 0.00 57.5 -- 84.2 0.0
08/01/2019 17:00 224.51 0.00 57.9 -- 85.5 0.0
08/01/2019 16:00 224.52 0.00 57.5 -- 83.7 0.0
08/01/2019 15:00 224.51 0.00 57.7 -- 85.0 0.0
08/01/2019 14:00 224.51 0.00 57.6 -- 82.4 0.0
08/01/2019 13:00 224.52 0.00 57.6 -- 80.5 0.0
08/01/2019 12:00 224.53 0.00 57.7 -- 79.5 0.3
08/01/2019 11:00 224.53 0.00 57.6 -- 78.3 0.8
08/01/2019 10:00 224.53 0.00 57.7 -- 75.6 0.3
08/01/2019 09:00 224.53 0.00 57.9 -- 72.1 1.0
08/01/2019 08:00 224.52 0.00 57.5 -- 66.7 0.5
08/01/2019 07:00 224.53 0.00 58.1 -- 63.5 0.8
08/01/2019 06:00 224.53 0.00 57.7 -- 63.9 1.0
08/01/2019 05:00 224.53 0.00 57.7 -- 63.6 1.0
08/01/2019 04:00 224.53 0.00 57.4 -- 64.7 1.0
08/01/2019 03:00 224.53 0.00 57.3 -- 66.3 1.0
08/01/2019 02:00 224.53 0.00 57.7 -- 67.2 0.5
08/01/2019 01:00 224.53 0.00 57.6 -- 68.5 1.0
08/01/2019 00:00 224.53 0.00 57.7 0.00 68.7 1.0
07/31/2019 23:00 224.53 0.00 57.6 -- 69.4 0.8
07/31/2019 22:00 224.53 0.00 57.5 -- 69.9 1.0
07/31/2019 21:00 224.53 0.00 58.1 -- 71.6 1.0
07/31/2019 20:00 224.53 0.00 57.6 -- 71.6 1.0
07/31/2019 19:00 224.54 0.01 57.6 -- 74.0 1.0
07/31/2019 18:00 224.53 0.00 58.1 -- 76.5 1.0
07/31/2019 17:00 224.53 0.01 57.3 -- 78.4 1.0
07/31/2019 16:00 224.53 0.00 56.9 -- 82.3 1.0
07/31/2019 15:00 224.53 0.00 57.4 -- 88.5 1.0
07/31/2019 14:00 224.53 0.00 57.4 -- 85.6 1.0
07/31/2019 13:00 224.54 0.00 57.9 -- 84.5 1.0
07/31/2019 12:00 224.53 0.00 57.5 -- 84.6 1.0
07/31/2019 11:00 224.54 0.00 57.6 -- 84.8 1.0
07/31/2019 10:00 224.54 0.00 57.4 -- 80.2 1.0
07/31/2019 09:00 224.54 0.00 57.6 -- 74.2 1.0
07/31/2019 08:00 224.54 0.00 57.9 -- 68.9 1.0
07/31/2019 07:00 224.54 0.00 57.4 -- 66.2 1.0
07/31/2019 06:00 224.54 0.00 57.4 -- 66.5 1.0
07/31/2019 05:00 224.54 0.00 57.3 -- 67.2 1.0
07/31/2019 04:00 224.54 0.00 57.5 -- 67.8 1.0
07/31/2019 03:00 224.54 0.00 57.5 -- 69.1 1.0
07/31/2019 02:00 224.54 0.00 57.2 -- 70.3 1.0
07/31/2019 01:00 224.54 0.00 57.2 -- 71.8 1.0
07/31/2019 00:00 224.55 0.00 57.7 0.02 73.2 1.0
07/30/2019 23:00 224.55 0.00 57.5 -- 74.9 1.0
07/30/2019 22:00 224.55 0.00 57.5 -- 76.5 1.0
07/30/2019 21:00 224.54 0.00 57.6 -- 78.4 1.0
07/30/2019 20:00 224.55 0.00 57.1 -- 82.2 1.0
07/30/2019 19:00 224.54 0.00 57.5 -- 88.4 1.0
07/30/2019 18:00 224.54 0.00 57.4 -- 90.3 1.0
07/30/2019 17:00 224.55 0.00 57.5 -- 92.1 1.0
07/30/2019 16:00 224.54 0.00 57.3 -- 91.5 1.0
07/30/2019 15:00 224.55 0.00 57.8 -- 90.3 1.0
07/30/2019 14:00 224.55 0.00 57.6 -- 90.4 1.0
07/30/2019 13:00 224.55 0.00 57.2 -- 90.1 1.3
07/30/2019 12:00 224.55 0.00 57.1 -- 86.7 1.3
07/30/2019 11:00 224.55 0.00 57.6 -- 83.4 1.0
07/30/2019 10:00 224.55 0.00 57.6 -- 79.9 1.0
07/30/2019 09:00 224.55 0.00 57.4 -- 72.8 1.3
07/30/2019 08:00 224.55 0.00 57.6 -- 67.7 1.0
07/30/2019 07:00 224.55 0.00 57.3 -- 65.4 1.8
07/30/2019 06:00 224.56 0.00 57.5 -- 65.7 1.8
07/30/2019 05:00 224.56 0.00 57.2 -- 66.4 2.0
07/30/2019 04:00 224.56 0.00 57.4 -- 66.9 1.8
07/30/2019 03:00 224.56 0.00 57.5 -- 67.3 2.0
07/30/2019 02:00 224.56 0.00 57.5 -- 68.2 2.0
07/30/2019 01:00 224.56 0.00 57.0 -- 69.1 2.0
07/30/2019 00:00 224.56 0.00 57.3 0.00 70.3 2.0
07/29/2019 23:00 224.56 0.00 57.7 -- 71.9 2.0
07/29/2019 22:00 224.56 0.00 57.6 -- 73.5 2.0
07/29/2019 21:00 224.56 0.00 57.3 -- 76.8 2.0
07/29/2019 20:00 224.56 0.00 56.7 -- 83.8 2.0
07/29/2019 19:00 224.56 0.00 57.3 -- 86.3 2.0
07/29/2019 18:00 224.56 0.00 57.4 -- 88.2 2.0
07/29/2019 17:00 224.56 0.00 57.1 -- 89.9 2.0
07/29/2019 16:00 224.56 0.00 57.6 -- 90.6 2.0
07/29/2019 15:00 224.57 0.00 57.4 -- 91.1 2.0
07/29/2019 14:00 224.57 0.00 57.1 -- 87.4 2.0
07/29/2019 13:00 224.57 0.00 58.0 -- 88.6 2.0
07/29/2019 12:00 224.57 0.00 57.1 -- 84.1 2.0
07/29/2019 11:00 224.57 0.00 57.1 -- 82.2 2.0
07/29/2019 10:00 224.57 0.00 57.7 -- 79.7 2.0
07/29/2019 09:00 224.57 0.00 57.5 -- 72.6 2.0
07/29/2019 08:00 224.57 0.00 57.2 -- 68.0 2.3
07/29/2019 07:00 224.57 0.00 57.3 -- 65.1 2.3
07/29/2019 06:00 224.57 0.00 58.2 -- 65.5 2.0
07/29/2019 05:00 224.58 0.00 57.2 -- 66.5 2.5
07/29/2019 04:00 224.58 0.00 57.4 -- 66.8 3.0
07/29/2019 03:00 224.57 0.00 57.6 -- 67.8 2.5
07/29/2019 02:00 224.58 0.00 57.4 -- 67.8 2.5
07/29/2019 01:00 224.58 0.00 57.2 -- 69.2 3.0
07/29/2019 00:00 224.58 0.00 57.3 0.00 70.0 2.8
07/28/2019 23:00 224.58 0.00 57.3 -- 71.6 3.0
07/28/2019 22:00 224.58 0.00 57.3 -- 73.8 3.0
07/28/2019 21:00 224.58 0.00 57.0 -- 76.3 3.0
07/28/2019 20:00 224.58 0.00 57.2 -- 82.7 3.0
07/28/2019 19:00 224.58 0.00 57.0 -- 86.5 3.0
07/28/2019 18:00 224.59 0.00 57.6 -- 88.1 3.0
07/28/2019 17:00 224.59 0.00 57.0 -- 88.6 3.0
07/28/2019 16:00 224.58 0.00 57.3 -- 89.5 3.0
07/28/2019 15:00 224.58 0.00 57.3 -- 86.2 3.0
07/28/2019 14:00 224.59 0.00 56.9 -- 86.2 3.0
07/28/2019 13:00 224.59 0.00 57.3 -- 83.9 3.0
07/28/2019 12:00 224.59 0.00 57.2 -- 82.1 3.0
07/28/2019 11:00 224.59 0.00 57.1 -- 78.4 3.0
07/28/2019 10:00 224.59 0.00 57.2 -- 72.6 3.0
07/28/2019 09:00 224.59 0.00 57.3 -- 66.4 3.8
07/28/2019 08:00 224.60 0.00 57.3 -- 60.9 3.8
07/28/2019 07:00 224.59 0.00 57.2 -- 59.2 3.5
07/28/2019 06:00 224.59 0.00 57.0 -- 59.6 3.5
07/28/2019 05:00 224.59 0.00 57.5 -- 59.6 3.8
07/28/2019 04:00 224.60 0.00 57.2 -- 60.2 4.0
07/28/2019 03:00 224.60 0.00 57.0 -- 61.0 3.8
07/28/2019 02:00 224.60 0.00 57.0 -- 61.3 4.0
07/28/2019 01:00 224.60 0.00 57.2 -- 62.1 4.0
07/28/2019 00:00 224.60 0.00 57.3 0.00 63.3 4.0
07/27/2019 23:00 224.60 0.00 57.2 -- 65.0 4.0
07/27/2019 22:00 224.60 0.00 57.1 -- 67.5 4.0
07/27/2019 21:00 224.61 0.00 56.6 -- 73.6 4.0
07/27/2019 20:00 224.61 0.00 57.7 -- 78.2 4.0
07/27/2019 19:00 224.61 0.00 57.1 -- 78.7 4.0
07/27/2019 18:00 224.61 0.00 57.1 -- 81.8 4.0
07/27/2019 17:00 224.61 0.00 56.9 -- 83.5 4.5
07/27/2019 16:00 224.61 0.00 57.0 -- 83.3 4.5
07/27/2019 15:00 224.62 0.00 56.9 -- 84.2 5.0
07/27/2019 14:00 224.61 0.00 57.4 -- 82.3 5.0
07/27/2019 13:00 224.62 0.00 56.6 -- 80.6 5.0
07/27/2019 12:00 224.62 0.00 57.3 -- 78.3 5.0
07/27/2019 11:00 224.62 0.00 57.0 -- 77.0 5.0
07/27/2019 10:00 224.62 0.00 57.0 -- 69.7 5.0
07/27/2019 09:00 224.62 0.00 56.8 -- 64.4 5.0
07/27/2019 08:00 224.62 0.00 57.3 -- 61.8 5.0
07/27/2019 07:00 224.63 0.00 56.9 -- 60.3 5.0
07/27/2019 06:00 224.62 0.00 57.0 -- 59.9 5.0
07/27/2019 05:00 224.63 0.00 57.1 -- 60.4 5.5
07/27/2019 04:00 224.63 0.00 57.2 -- 61.1 5.8
07/27/2019 03:00 224.63 0.00 57.2 -- 62.1 6.0
07/27/2019 02:00 224.63 0.00 56.6 -- 63.1 5.5
07/27/2019 01:00 224.63 0.00 56.9 -- 63.8 6.0
07/27/2019 00:00 224.63 0.00 57.4 0.00 65.0 6.0
07/26/2019 23:00 224.63 0.00 56.7 -- 66.8 6.0
07/26/2019 22:00 224.64 0.00 57.0 -- 68.1 6.0
07/26/2019 21:00 224.64 0.00 57.3 -- 72.8 6.0
07/26/2019 20:00 224.64 0.00 57.1 -- 79.1 6.0
07/26/2019 19:00 224.64 0.00 57.1 -- 81.1 6.3
07/26/2019 18:00 224.64 0.00 56.8 -- 84.6 6.3
07/26/2019 17:00 224.65 0.00 57.1 -- 84.2 7.0
07/26/2019 16:00 224.64 0.00 56.3 -- 83.7 7.0
07/26/2019 15:00 224.64 0.00 57.3 -- 80.9 6.8
07/26/2019 14:00 224.65 0.00 57.3 -- 83.7 7.0
07/26/2019 13:00 224.65 0.00 57.1 -- 81.6 7.0
07/26/2019 12:00 224.65 0.00 56.9 -- 80.2 7.0
07/26/2019 11:00 224.65 0.00 57.0 -- 77.3 7.0
07/26/2019 10:00 224.66 0.00 56.8 -- 70.8 7.0
07/26/2019 09:00 224.65 0.00 57.0 -- 63.9 7.0
07/26/2019 08:00 224.66 0.00 56.9 -- 58.9 7.0
07/26/2019 07:00 224.66 0.00 57.0 -- 56.9 7.0
07/26/2019 06:00 224.66 0.00 57.0 -- 56.9 8.0
07/26/2019 05:00 224.66 0.00 57.3 -- 57.4 7.8
07/26/2019 04:00 224.66 0.00 56.6 -- 57.9 8.0
07/26/2019 03:00 224.66 0.00 56.6 -- 58.4 8.0
07/26/2019 02:00 224.67 0.00 57.4 -- 58.8 8.0
07/26/2019 01:00 224.66 0.00 56.9 -- 60.0 8.0
07/26/2019 00:00 224.66 0.00 56.6 0.00 61.0 8.0
07/25/2019 23:00 224.67 0.00 57.1 -- 62.0 8.0
07/25/2019 22:00 224.67 0.00 57.0 -- 64.0 8.0
07/25/2019 21:00 224.67 0.00 56.9 -- 68.5 8.5
07/25/2019 20:00 224.67 0.00 56.3 -- 75.7 8.5
07/25/2019 19:00 224.67 0.00 57.0 -- 77.4 9.0
07/25/2019 18:00 224.67 0.00 57.1 -- 78.8 9.0
07/25/2019 17:00 224.67 0.00 56.7 -- 78.1 8.8
07/25/2019 16:00 224.68 0.00 56.6 -- 76.7 9.0
07/25/2019 15:00 224.67 0.00 57.0 -- 81.4 9.0
07/25/2019 14:00 224.68 0.00 56.8 -- 78.7 9.0
07/25/2019 13:00 224.68 0.00 56.9 -- 76.6 9.0
07/25/2019 12:00 224.68 0.00 56.7 -- 76.3 9.0
07/25/2019 11:00 224.68 0.00 56.6 -- 75.2 9.0
07/25/2019 10:00 224.68 0.00 57.0 -- 71.0 9.0
07/25/2019 09:00 224.69 0.00 56.9 -- 61.4 9.3
07/25/2019 08:00 224.68 0.00 56.6 -- 57.2 9.5
07/25/2019 07:00 224.69 0.00 56.9 -- 56.5 9.8
07/25/2019 06:00 224.69 0.00 56.6 -- 56.6 10.0
07/25/2019 05:00 224.69 0.00 56.9 -- 56.7 10.0
07/25/2019 04:00 224.69 0.00 56.7 -- 56.9 10.0
07/25/2019 03:00 224.69 0.00 57.0 -- 57.5 10.0
07/25/2019 02:00 224.69 0.00 56.7 -- 58.4 10.0
07/25/2019 01:00 224.69 0.00 56.5 -- 59.5 10.0
07/25/2019 00:00 224.70 0.00 56.9 0.00 60.7 10.3
07/24/2019 23:00 224.69 0.00 56.7 -- 62.6 10.0
07/24/2019 22:00 224.69 0.00 57.0 -- 66.0 10.0
07/24/2019 21:00 224.70 0.00 56.9 -- 70.3 10.0
07/24/2019 20:00 224.69 0.00 56.4 -- 78.6 10.0
07/24/2019 19:00 224.70 0.00 56.7 -- 81.3 10.8
07/24/2019 18:00 224.70 0.00 56.4 -- 80.5 10.5
07/24/2019 17:00 224.70 0.00 56.6 -- 81.2 11.0
07/24/2019 16:00 224.70 0.00 56.7 -- 80.7 11.0
07/24/2019 15:00 224.70 0.00 56.7 -- 77.7 11.0
07/24/2019 14:00 224.70 0.00 56.7 -- 77.4 11.0
07/24/2019 13:00 224.71 0.00 56.6 -- 75.5 11.0
07/24/2019 12:00 224.70 0.00 56.7 -- 77.4 11.0
07/24/2019 11:00 224.71 0.00 56.6 -- 71.5 11.0
07/24/2019 10:00 224.71 0.00 56.5 -- 69.6 11.0
07/24/2019 09:00 224.71 0.00 56.7 -- 63.7 11.0
07/24/2019 08:00 224.71 0.00 56.7 -- 61.3 11.0
07/24/2019 07:00 224.71 0.00 56.6 -- 59.7 11.0
07/24/2019 06:00 224.71 0.00 56.6 -- 60.0 11.0
07/24/2019 05:00 224.71 0.00 56.6 -- 60.3 11.5
07/24/2019 04:00 224.71 0.00 56.7 -- 60.5 11.0
07/24/2019 03:00 224.71 0.00 56.6 -- 60.6 11.3
07/24/2019 02:00 224.71 0.00 56.5 -- 60.7 11.3
07/24/2019 01:00 224.71 0.00 56.6 -- 61.0 11.0
07/24/2019 00:00 224.71 0.00 56.8 0.00 60.8 11.8
07/23/2019 23:00 224.71 0.00 56.6 -- 61.4 11.3
07/23/2019 22:00 224.71 0.00 56.6 -- 62.2 11.0
07/23/2019 21:00 224.71 0.00 56.4 -- 64.2 11.8
07/23/2019 20:00 224.71 0.00 56.7 -- 67.4 11.0
07/23/2019 19:00 224.71 0.00 56.4 -- 70.6 11.0
07/23/2019 18:00 224.71 0.00 56.6 -- 72.5 11.8
07/23/2019 17:00 224.71 0.00 56.4 -- 69.9 11.8
07/23/2019 16:00 224.71 0.00 56.5 -- 67.4 11.8
07/23/2019 15:00 224.71 0.00 56.8 -- 64.3 11.8
07/23/2019 14:00 224.71 0.00 56.5 -- 64.0 12.0
07/23/2019 13:00 224.71 0.01 56.9 -- 62.1 11.3
07/23/2019 12:00 224.71 0.03 56.1 -- 60.1 11.3
07/23/2019 11:00 224.71 0.04 56.5 -- 60.3 11.0
07/23/2019 10:00 224.70 0.03 56.5 -- 60.6 10.8
07/23/2019 09:00 224.69 0.04 56.8 -- 61.8 10.3
07/23/2019 08:00 224.70 0.10 56.3 -- 61.8 10.0
07/23/2019 07:00 224.67 0.13 56.4 -- 61.5 8.5
07/23/2019 06:00 224.68 0.13 56.4 -- 61.8 8.3
07/23/2019 05:00 224.66 0.05 56.5 -- 62.4 7.0
07/23/2019 04:00 224.65 0.04 56.5 -- 63.0 7.0
07/23/2019 03:00 224.65 0.10 56.8 -- 63.8 6.5
07/23/2019 02:00 224.63 0.23 56.5 -- 63.4 5.5
07/23/2019 01:00 224.60 0.39 56.2 -- 63.5 3.8
07/23/2019 00:00 224.57 0.11 56.9 1.32 63.6 2.0
07/22/2019 23:00 224.55 0.38 56.5 -- 64.1 0.5
07/22/2019 22:00 224.52 0.02 56.3 -- 64.4 0.0
07/22/2019 21:00 224.52 0.03 56.7 -- 65.2 0.0
07/22/2019 20:00 224.52 0.10 56.5 -- 65.6 0.0
07/22/2019 19:00 224.51 0.07 56.7 -- 66.6 0.0
07/22/2019 18:00 224.50 0.08 56.2 -- 67.1 0.0
07/22/2019 17:00 224.49 0.04 56.3 -- 68.2 0.0
07/22/2019 16:00 224.50 0.00 56.7 -- 73.0 0.0
07/22/2019 15:00 224.49 0.00 56.5 -- 75.0 0.0
07/22/2019 14:00 224.49 0.00 56.5 -- 76.0 0.0
07/22/2019 13:00 224.49 0.00 56.6 -- 75.9 0.0
07/22/2019 12:00 224.49 0.00 56.6 -- 77.4 0.0
07/22/2019 11:00 224.50 0.00 56.5 -- 78.2 0.0
07/22/2019 10:00 224.49 0.00 56.6 -- 75.8 0.0
07/22/2019 09:00 224.49 0.00 56.4 -- 72.5 0.0
07/22/2019 08:00 224.49 0.00 56.2 -- 66.7 0.0
07/22/2019 07:00 224.49 0.00 56.8 -- 64.2 0.0
07/22/2019 06:00 224.50 0.00 56.5 -- 66.2 0.0
07/22/2019 05:00 224.50 0.00 56.2 -- 65.3 0.0
07/22/2019 04:00 224.50 0.00 57.0 -- 66.4 0.0
07/22/2019 03:00 224.49 0.00 56.4 -- 68.1 0.0
07/22/2019 02:00 224.50 0.00 56.5 -- 70.0 0.0
07/22/2019 01:00 224.50 0.00 56.4 -- 76.1 0.0
07/22/2019 00:00 224.50 0.00 56.5 0.83 75.2 0.0
07/21/2019 23:00 224.50 0.00 56.2 -- 76.9 0.0
07/21/2019 22:00 224.50 0.00 56.1 -- 76.3 0.0
07/21/2019 21:00 224.50 0.00 56.4 -- 80.0 0.0
07/21/2019 20:00 224.50 0.00 56.7 -- 88.3 0.0
07/21/2019 19:00 224.50 0.00 56.3 -- 89.2 0.0
07/21/2019 18:00 224.50 0.00 56.1 -- 91.9 0.0
07/21/2019 17:00 224.50 0.00 56.4 -- 91.4 0.0
07/21/2019 16:00 224.50 0.00 56.6 -- 93.2 0.0
07/21/2019 15:00 224.52 0.00 56.6 -- 93.1 0.0
07/21/2019 14:00 224.51 0.00 56.8 -- 92.0 0.0
07/21/2019 13:00 224.52 0.00 57.1 -- 90.9 0.0
07/21/2019 12:00 224.52 0.00 56.6 -- 89.1 0.3
07/21/2019 11:00 224.50 0.00 56.2 -- 83.9 0.0
07/21/2019 10:00 224.50 0.00 56.8 -- 83.1 0.0
07/21/2019 09:00 224.51 0.00 56.4 -- 80.7 0.0
07/21/2019 08:00 224.51 0.00 56.5 -- 76.8 0.0
07/21/2019 07:00 224.51 0.00 56.3 -- 74.1 0.0
07/21/2019 06:00 224.51 0.00 56.5 -- 75.8 0.0
07/21/2019 05:00 224.51 0.00 56.5 -- 79.2 0.0
07/21/2019 04:00 224.51 0.00 56.7 -- 79.8 0.0
07/21/2019 03:00 224.51 0.00 56.5 -- 76.6 0.0
07/21/2019 02:00 224.51 0.00 56.0 -- 76.7 0.0
07/21/2019 01:00 224.52 0.00 56.8 -- 77.4 0.0
07/21/2019 00:00 224.51 0.00 56.5 0.00 77.5 0.0
07/20/2019 23:00 224.51 0.00 56.8 -- 79.0 0.0
07/20/2019 22:00 224.51 0.00 56.3 -- 80.5 0.0
07/20/2019 21:00 224.51 0.00 56.4 -- 83.3 0.0
07/20/2019 20:00 224.51 0.00 55.9 -- 88.5 0.0
07/20/2019 19:00 224.52 0.00 56.5 -- 93.0 0.0
07/20/2019 18:00 224.52 0.00 56.3 -- 95.6 0.0
07/20/2019 17:00 224.52 0.00 56.2 -- 94.5 0.0
07/20/2019 16:00 224.52 0.00 56.4 -- 97.3 0.0
07/20/2019 15:00 224.52 0.00 56.3 -- 94.3 0.0
07/20/2019 14:00 224.52 0.00 56.5 -- 94.3 0.0
07/20/2019 13:00 224.52 0.00 56.3 -- 91.0 0.0
07/20/2019 12:00 224.51 0.00 56.3 -- 89.1 0.0
07/20/2019 11:00 224.52 0.00 57.0 -- 85.7 0.0
07/20/2019 10:00 224.52 0.00 56.4 -- 83.1 0.0
07/20/2019 09:00 224.52 0.00 56.7 -- 79.9 0.0
07/20/2019 08:00 224.52 0.00 56.5 -- 77.9 0.0
07/20/2019 07:00 224.52 0.00 56.6 -- 73.6 0.0
07/20/2019 06:00 224.52 0.00 56.1 -- 74.0 0.0
07/20/2019 05:00 224.52 0.00 56.7 -- 76.8 0.0
07/20/2019 04:00 224.52 0.00 56.7 -- 77.4 0.0
07/20/2019 03:00 224.52 0.00 56.0 -- 76.7 0.0
07/20/2019 02:00 224.52 0.00 56.4 -- 74.4 0.0
07/20/2019 01:00 224.52 0.00 56.4 -- 77.7 0.0
07/20/2019 00:00 224.52 0.00 56.3 0.00 75.6 0.3
07/19/2019 23:00 224.52 0.00 56.5 -- 77.0 0.0
07/19/2019 22:00 224.52 0.00 56.6 -- 78.7 0.0
07/19/2019 21:00 224.52 0.00 56.2 -- 81.1 0.0
07/19/2019 20:00 224.52 0.00 56.4 -- 90.5 0.5
07/19/2019 19:00 224.52 0.00 56.4 -- 90.5 0.3
07/19/2019 18:00 224.53 0.00 56.4 -- 90.7 0.3
07/19/2019 17:00 224.52 0.00 56.3 -- 89.4 0.3
07/19/2019 16:00 224.53 0.00 56.3 -- 86.5 1.0
07/19/2019 15:00 224.52 0.00 56.4 -- 86.5 0.5
07/19/2019 14:00 224.53 0.00 56.2 -- 84.5 0.3
07/19/2019 13:00 224.53 0.00 56.5 -- 81.1 0.8
07/19/2019 12:00 224.53 0.00 56.5 -- 77.8 1.0
07/19/2019 11:00 224.52 0.00 56.5 -- 75.3 0.8
07/19/2019 10:00 224.53 0.00 56.3 -- 72.2 0.8
07/19/2019 09:00 224.52 0.00 56.6 -- 66.9 0.5
07/19/2019 08:00 224.53 0.00 56.2 -- 63.1 1.0
07/19/2019 07:00 224.53 0.00 56.5 -- 61.0 0.8
07/19/2019 06:00 224.53 0.00 56.5 -- 60.5 1.0
07/19/2019 05:00 224.53 0.00 56.6 -- 59.1 1.0
07/19/2019 04:00 224.53 0.00 56.4 -- 57.7 1.0
07/19/2019 03:00 224.53 0.00 56.2 -- 58.0 1.0
07/19/2019 02:00 224.53 0.00 56.4 -- 58.8 1.0
07/19/2019 01:00 224.53 0.00 56.5 -- 59.5 1.0
07/19/2019 00:00 224.53 0.00 56.7 0.00 61.2 1.0
07/18/2019 23:00 224.54 0.00 56.2 -- 62.8 1.0
07/18/2019 22:00 224.54 0.00 56.3 -- 65.3 1.0
07/18/2019 21:00 224.53 0.00 56.2 -- 68.7 1.0
07/18/2019 20:00 224.54 0.00 56.3 -- 70.6 1.0
07/18/2019 19:00 224.54 0.00 56.5 -- 73.6 1.0
07/18/2019 18:00 224.54 0.00 56.1 -- 76.8 1.0
07/18/2019 17:00 224.54 0.00 56.0 -- 76.5 1.0
07/18/2019 16:00 224.55 0.00 56.0 -- 76.5 1.0
07/18/2019 15:00 224.54 0.00 56.3 -- 78.5 1.0
07/18/2019 14:00 224.54 0.00 57.0 -- 76.2 1.0
07/18/2019 13:00 224.55 0.00 56.1 -- 74.4 1.3
07/18/2019 12:00 224.55 0.00 56.2 -- 71.3 1.3
07/18/2019 11:00 224.56 0.00 56.7 -- 70.3 1.3
07/18/2019 10:00 224.54 0.00 56.1 -- 68.6 1.0
07/18/2019 09:00 224.55 0.00 55.9 -- 68.9 1.3
07/18/2019 08:00 224.55 0.00 56.3 -- 68.5 1.0
07/18/2019 07:00 224.55 0.00 56.2 -- 67.6 1.3
07/18/2019 06:00 224.55 0.00 56.0 -- 68.8 1.3
07/18/2019 05:00 224.55 0.00 56.3 -- 69.3 1.0
07/18/2019 04:00 224.55 0.00 56.1 -- 67.8 1.5
07/18/2019 03:00 224.56 0.00 56.3 -- 69.5 1.3
07/18/2019 02:00 224.55 0.00 56.2 -- 70.3 1.0
07/18/2019 01:00 224.55 0.00 56.1 -- 71.3 1.5
07/18/2019 00:00 224.55 0.00 55.8 0.00 71.6 1.0
07/17/2019 23:00 224.56 0.00 56.4 -- 72.0 1.8
07/17/2019 22:00 224.55 0.00 56.0 -- 72.5 1.5
07/17/2019 21:00 224.55 0.01 56.0 -- 73.7 1.5
07/17/2019 20:00 224.56 0.01 56.6 -- 74.5 2.0
07/17/2019 19:00 224.56 0.00 55.8 -- 76.6 1.3
07/17/2019 18:00 224.55 0.00 55.8 -- 79.2 1.3
07/17/2019 17:00 224.56 0.00 56.5 -- 83.1 1.5
07/17/2019 16:00 224.55 0.00 56.2 -- 83.4 1.8
07/17/2019 15:00 224.56 0.00 55.9 -- 82.8 1.5
07/17/2019 14:00 224.55 0.00 56.4 -- 80.1 1.8
07/17/2019 13:00 224.56 0.00 56.3 -- 83.3 1.8
07/17/2019 12:00 224.56 0.00 56.1 -- 80.4 1.5
07/17/2019 11:00 224.56 0.00 56.4 -- 78.9 2.0
07/17/2019 10:00 224.56 0.00 55.8 -- 77.2 2.0
07/17/2019 09:00 224.56 0.00 56.6 -- 72.4 2.0
07/17/2019 08:00 224.56 0.00 56.2 -- 70.8 2.0
07/17/2019 07:00 224.56 0.00 56.1 -- 68.4 2.0
07/17/2019 06:00 224.56 0.00 56.1 -- 67.5 2.0
07/17/2019 05:00 224.56 0.00 56.1 -- 67.7 2.0
07/17/2019 04:00 224.56 0.00 56.2 -- 67.6 2.0
07/17/2019 03:00 224.56 0.00 56.3 -- 67.2 2.0
07/17/2019 02:00 224.56 0.00 56.0 -- 66.9 2.0
07/17/2019 01:00 224.57 0.00 56.1 -- 67.6 2.0
07/17/2019 00:00 224.57 0.00 55.9 0.02 68.1 2.0
07/16/2019 23:00 224.57 0.00 56.5 -- 69.4 2.0
07/16/2019 22:00 224.56 0.00 56.2 -- 71.0 2.0
07/16/2019 21:00 224.57 0.00 56.1 -- 73.7 2.0
07/16/2019 20:00 224.57 0.00 56.3 -- 81.1 2.0
07/16/2019 19:00 224.57 0.00 56.3 -- 80.2 2.0
07/16/2019 18:00 224.57 0.00 56.3 -- 79.6 2.0
07/16/2019 17:00 224.57 0.00 56.3 -- 81.7 2.0
07/16/2019 16:00 224.57 0.00 56.0 -- 83.0 2.0
07/16/2019 15:00 224.57 0.00 55.8 -- 84.1 2.5
07/16/2019 14:00 224.58 0.00 56.0 -- 81.9 2.3
07/16/2019 13:00 224.58 0.00 56.5 -- 81.0 3.0
07/16/2019 12:00 224.58 0.00 56.1 -- 79.4 3.0
07/16/2019 11:00 224.58 0.00 55.7 -- 76.7 2.8
07/16/2019 10:00 224.58 0.00 55.9 -- 74.8 3.0
07/16/2019 09:00 224.58 0.00 56.2 -- 67.1 2.8
07/16/2019 08:00 224.58 0.00 56.3 -- 60.9 3.0
07/16/2019 07:00 224.58 0.00 55.9 -- 57.5 3.0
07/16/2019 06:00 224.58 0.00 56.2 -- 57.1 3.0
07/16/2019 05:00 224.58 0.00 56.1 -- 57.7 3.0
07/16/2019 04:00 224.58 0.00 56.2 -- 57.9 3.0
07/16/2019 03:00 224.58 0.00 56.0 -- 59.1 3.0
07/16/2019 02:00 224.58 0.00 56.1 -- 59.9 3.0
07/16/2019 01:00 224.59 0.00 56.0 -- 61.1 3.0
07/16/2019 00:00 224.59 0.00 56.1 0.00 63.8 3.0
07/15/2019 23:00 224.59 0.00 55.9 -- 65.4 3.0
07/15/2019 22:00 224.59 0.00 55.9 -- 67.1 3.0
07/15/2019 21:00 224.59 0.00 55.8 -- 70.9 3.0
07/15/2019 20:00 224.59 0.00 56.3 -- 79.9 3.0
07/15/2019 19:00 224.60 0.00 55.7 -- 83.3 3.3
07/15/2019 18:00 224.60 0.00 56.0 -- 82.2 3.3
07/15/2019 17:00 224.58 0.00 55.6 -- 82.3 3.5
07/15/2019 16:00 224.60 0.00 56.7 -- 81.8 4.0
07/15/2019 15:00 224.60 0.00 55.9 -- 79.6 3.8
07/15/2019 14:00 224.58 0.00 56.0 -- 77.1 3.3
07/15/2019 13:00 224.60 0.00 56.1 -- 76.3 3.8
07/15/2019 12:00 224.60 0.00 55.8 -- 75.2 4.0
07/15/2019 11:00 224.60 0.00 55.8 -- 74.2 4.0
07/15/2019 10:00 224.61 0.00 56.1 -- 69.9 4.0
07/15/2019 09:00 224.61 0.00 55.8 -- 67.7 4.0
07/15/2019 08:00 224.61 0.00 55.9 -- 62.9 4.0
07/15/2019 07:00 224.61 0.00 56.3 -- 59.3 4.3
07/15/2019 06:00 224.61 0.00 55.7 -- 61.7 4.0
07/15/2019 05:00 224.61 0.00 55.8 -- 60.5 4.0
07/15/2019 04:00 224.61 0.00 55.7 -- 63.0 4.0
07/15/2019 03:00 224.61 0.00 56.0 -- 66.2 4.8
07/15/2019 02:00 224.62 0.00 55.8 -- 68.1 4.8
07/15/2019 01:00 224.62 0.00 55.7 -- 69.4 5.0
07/15/2019 00:00 224.62 0.00 55.7 0.00 70.1 4.8
07/14/2019 23:00 224.62 0.00 56.0 -- 72.2 5.0
07/14/2019 22:00 224.62 0.00 55.9 -- 73.5 5.0
07/14/2019 21:00 224.62 0.00 55.4 -- 76.8 5.0
07/14/2019 20:00 224.62 0.00 55.6 -- 80.2 5.0
07/14/2019 19:00 224.62 0.00 55.3 -- 83.6 5.0
07/14/2019 18:00 224.62 0.00 55.9 -- 84.9 5.8
07/14/2019 17:00 224.62 0.00 55.5 -- 85.6 5.3
07/14/2019 16:00 224.63 0.00 55.5 -- 83.4 5.5
07/14/2019 15:00 224.63 0.00 56.3 -- 83.5 6.0
07/14/2019 14:00 224.64 0.00 56.5 -- 84.0 5.8
07/14/2019 13:00 224.63 0.00 55.4 -- 82.6 6.3
07/14/2019 12:00 224.63 0.00 56.1 -- 82.6 6.0
07/14/2019 11:00 224.64 0.00 55.7 -- 79.6 6.0
07/14/2019 10:00 224.64 0.00 55.9 -- 77.7 6.0
07/14/2019 09:00 224.64 0.00 56.0 -- 71.5 6.3
07/14/2019 08:00 224.64 0.00 55.6 -- 65.9 6.0
07/14/2019 07:00 224.65 0.00 55.3 -- 64.3 6.5
07/14/2019 06:00 224.64 0.00 55.5 -- 65.0 6.0
07/14/2019 05:00 224.64 0.00 55.9 -- 66.4 7.0
07/14/2019 04:00 224.64 0.00 55.8 -- 67.0 7.0
07/14/2019 03:00 224.64 0.00 55.9 -- 66.9 6.5
07/14/2019 02:00 224.65 0.00 55.5 -- 66.5 6.8
07/14/2019 01:00 224.65 0.00 55.4 -- 67.9 7.0
07/14/2019 00:00 224.65 0.00 56.1 0.00 67.7 7.0
07/13/2019 23:00 224.65 0.00 55.8 -- 68.8 7.0
07/13/2019 22:00 224.65 0.00 55.6 -- 70.6 7.0
07/13/2019 21:00 224.65 0.00 55.4 -- 73.9 7.0
07/13/2019 20:00 224.66 0.00 56.1 -- 81.6 7.0
07/13/2019 19:00 224.65 0.00 56.0 -- 84.9 7.0
07/13/2019 18:00 224.65 0.00 55.6 -- 86.7 7.0
07/13/2019 17:00 224.66 0.00 55.7 -- 84.5 8.0
07/13/2019 16:00 224.66 0.00 55.6 -- 83.9 7.8
07/13/2019 15:00 224.66 0.00 55.6 -- 85.3 8.0
07/13/2019 14:00 224.66 0.00 55.5 -- 81.2 7.8
07/13/2019 13:00 224.66 0.00 55.8 -- 80.2 8.0
07/13/2019 12:00 224.66 0.00 55.3 -- 78.1 8.0
07/13/2019 11:00 224.67 0.00 55.6 -- 75.0 8.0
07/13/2019 10:00 224.67 0.00 55.4 -- 73.5 8.0
07/13/2019 09:00 224.67 0.00 55.8 -- 69.3 8.0
07/13/2019 08:00 224.67 0.00 55.2 -- 64.5 8.0
07/13/2019 07:00 224.67 0.00 55.4 -- 62.5 8.3
07/13/2019 06:00 224.67 0.00 55.7 -- 62.4 8.3
07/13/2019 05:00 224.66 0.00 55.5 -- 63.9 8.3
07/13/2019 04:00 224.67 0.00 55.2 -- 66.5 8.3
07/13/2019 03:00 224.67 0.00 55.5 -- 67.3 8.0
07/13/2019 02:00 224.67 0.00 55.3 -- 67.9 8.0
07/13/2019 01:00 224.67 0.00 55.3 -- 68.5 8.0
07/13/2019 00:00 224.66 0.00 56.3 0.00 67.9 7.8
07/12/2019 23:00 224.66 0.00 55.3 -- 67.9 7.5
07/12/2019 22:00 224.66 0.25 56.5 -- 68.6 8.3
07/12/2019 21:00 224.65 1.02 56.3 -- 69.8 2.5
07/12/2019 20:00 224.55 0.00 56.0 -- 75.2 1.0
07/12/2019 19:00 224.55 0.00 56.0 -- 76.7 1.0
07/12/2019 18:00 224.55 0.00 56.0 -- 80.3 1.0
07/12/2019 17:00 224.55 0.00 56.6 -- 80.9 1.0
07/12/2019 16:00 224.55 0.01 56.0 -- 75.9 1.0
07/12/2019 15:00 224.55 0.00 55.8 -- 81.1 1.0
07/12/2019 14:00 224.55 0.00 56.5 -- 83.5 1.0
07/12/2019 13:00 224.55 0.00 56.5 -- 80.4 1.0
07/12/2019 12:00 224.55 0.00 56.2 -- 75.0 1.0
07/12/2019 11:00 224.55 0.00 56.2 -- 72.0 1.0
07/12/2019 10:00 224.55 0.01 56.4 -- 69.5 1.0
07/12/2019 09:00 224.55 0.00 56.2 -- 68.3 1.0
07/12/2019 08:00 224.55 0.04 56.4 -- 67.9 1.0
07/12/2019 07:00 224.55 0.00 56.3 -- 67.6 1.0
07/12/2019 06:00 224.55 0.02 56.3 -- 67.3 1.0
07/12/2019 05:00 224.54 0.05 56.5 -- 66.9 1.0
07/12/2019 04:00 224.55 0.02 55.8 -- 66.7 1.0
07/12/2019 03:00 224.54 0.02 55.9 -- 66.8 1.0
07/12/2019 02:00 224.53 0.01 56.9 -- 66.7 1.0
07/12/2019 01:00 224.54 0.07 56.0 -- 67.2 1.0
07/12/2019 00:00 224.53 0.01 56.2 1.52 67.2 0.8
07/11/2019 23:00 224.53 0.00 55.7 -- 67.2 1.0
07/11/2019 22:00 224.53 0.00 56.5 -- 67.5 0.8
07/11/2019 21:00 224.53 0.00 56.0 -- 68.2 1.0
07/11/2019 20:00 224.53 0.32 56.5 -- 68.3 0.5
07/11/2019 19:00 224.49 0.07 56.4 -- 69.4 0.0
07/11/2019 18:00 224.49 0.33 56.0 -- 71.2 0.0
07/11/2019 17:00 224.47 0.04 56.5 -- 73.6 0.0
07/11/2019 16:00 224.46 0.00 56.4 -- 77.4 0.0
07/11/2019 15:00 224.46 0.00 56.2 -- 81.6 0.0
07/11/2019 14:00 224.47 0.00 56.0 -- 82.2 0.0
07/11/2019 13:00 224.47 0.00 56.4 -- 79.4 0.0
07/11/2019 12:00 224.47 0.00 56.0 -- 77.7 0.0
07/11/2019 11:00 224.47 0.00 56.4 -- 73.6 0.0
07/11/2019 10:00 224.46 0.00 56.3 -- 67.5 0.0
07/11/2019 09:00 224.47 0.00 56.1 -- 64.9 0.0
07/11/2019 08:00 224.47 0.00 56.1 -- 64.2 0.0
07/11/2019 07:00 224.47 0.00 56.5 -- 62.3 0.0
07/11/2019 06:00 224.47 0.00 56.0 -- 61.5 0.0
07/11/2019 05:00 224.47 0.00 56.5 -- 61.2 0.0
07/11/2019 04:00 224.47 0.00 56.2 -- 61.5 0.0
07/11/2019 03:00 224.47 0.00 55.7 -- 61.7 0.0
07/11/2019 02:00 224.47 0.00 56.6 -- 61.8 0.0
07/11/2019 01:00 224.47 0.00 56.3 -- 62.8 0.0
07/11/2019 00:00 224.47 0.00 56.2 0.77 64.0 0.0
07/10/2019 23:00 224.47 0.00 56.2 -- 65.6 0.0
07/10/2019 22:00 224.47 0.00 56.4 -- 68.3 0.0
07/10/2019 21:00 224.47 0.00 55.7 -- 74.4 0.0
07/10/2019 20:00 224.47 0.00 55.7 -- 78.8 0.0
07/10/2019 19:00 224.48 0.00 56.2 -- 78.0 0.0
07/10/2019 18:00 224.48 0.00 56.1 -- 79.1 0.0
07/10/2019 17:00 224.48 0.00 56.3 -- 82.0 0.0
07/10/2019 16:00 224.48 0.00 56.0 -- 87.5 0.0
07/10/2019 15:00 224.48 0.00 56.2 -- 87.6 0.0
07/10/2019 14:00 224.47 0.00 56.0 -- 86.1 0.0
07/10/2019 13:00 224.48 0.00 55.8 -- 85.0 0.0
07/10/2019 12:00 224.48 0.00 55.9 -- 84.0 0.0
07/10/2019 11:00 224.48 0.00 56.2 -- 79.5 0.0
07/10/2019 10:00 224.48 0.00 55.9 -- 75.7 0.0
07/10/2019 09:00 224.48 0.00 55.6 -- 67.2 0.0
07/10/2019 08:00 224.48 0.00 56.0 -- 61.7 0.0
07/10/2019 07:00 224.48 0.00 56.2 -- 58.4 0.0
07/10/2019 06:00 224.48 0.00 55.9 -- 58.3 0.0
07/10/2019 05:00 224.48 0.00 56.0 -- 58.8 0.0
07/10/2019 04:00 224.48 0.00 56.1 -- 59.5 0.0
07/10/2019 03:00 224.48 0.00 56.2 -- 60.4 0.0
07/10/2019 02:00 224.48 0.00 55.8 -- 61.0 0.0
07/10/2019 01:00 224.48 0.00 56.3 -- 61.3 0.0
07/10/2019 00:00 224.48 0.00 56.1 0.00 62.9 0.0
07/09/2019 23:00 224.48 0.00 55.4 -- 65.4 0.0
07/09/2019 22:00 224.48 0.00 55.6 -- 68.3 0.0
07/09/2019 21:00 224.48 0.00 56.1 -- 73.1 0.0
07/09/2019 20:00 224.48 0.00 55.5 -- 82.1 0.0
07/09/2019 19:00 224.49 0.00 55.9 -- 86.1 0.0
07/09/2019 18:00 224.49 0.00 55.9 -- 88.3 0.0
07/09/2019 17:00 224.48 0.00 56.1 -- 86.8 0.0
07/09/2019 16:00 224.49 0.00 55.1 -- 86.4 0.0
07/09/2019 15:00 224.51 0.00 56.1 -- 85.4 0.0
07/09/2019 14:00 224.50 0.00 56.1 -- 85.5 0.0
07/09/2019 13:00 224.49 0.00 56.1 -- 81.6 0.0
07/09/2019 12:00 224.49 0.00 55.9 -- 80.9 0.0
07/09/2019 11:00 224.49 0.00 55.9 -- 78.6 0.0
07/09/2019 10:00 224.49 0.00 55.8 -- 74.7 0.0
07/09/2019 09:00 224.49 0.00 56.1 -- 67.7 0.0
07/09/2019 08:00 224.49 0.00 56.0 -- 59.1 0.0
07/09/2019 07:00 224.50 0.00 56.0 -- 55.0 0.0
07/09/2019 06:00 224.49 0.00 56.0 -- 55.0 0.0
07/09/2019 05:00 224.49 0.00 55.9 -- 55.6 0.0
07/09/2019 04:00 224.50 0.00 56.2 -- 56.3 0.0
07/09/2019 03:00 224.49 0.00 55.5 -- 57.6 0.0
07/09/2019 02:00 224.50 0.00 55.6 -- 59.3 0.0
07/09/2019 01:00 224.50 0.00 56.3 -- 59.9 0.0
07/09/2019 00:00 224.50 0.00 56.0 0.00 61.0 0.0
07/08/2019 23:00 224.50 0.00 55.8 -- 62.3 0.0
07/08/2019 22:00 224.50 0.00 56.3 -- 64.9 0.0
07/08/2019 21:00 224.50 0.00 56.0 -- 69.4 0.0
07/08/2019 20:00 224.50 0.00 55.9 -- 80.4 0.0
07/08/2019 19:00 224.50 0.00 55.8 -- 83.2 0.0
07/08/2019 18:00 224.50 0.00 55.7 -- 82.7 0.0
07/08/2019 17:00 224.50 0.00 55.5 -- 81.9 0.0
07/08/2019 16:00 224.50 0.00 55.8 -- 81.2 0.0
07/08/2019 15:00 224.51 0.00 55.8 -- 80.5 0.0
07/08/2019 14:00 224.50 0.00 56.0 -- 78.9 0.0
07/08/2019 13:00 224.50 0.00 55.6 -- 78.8 0.0
07/08/2019 12:00 224.50 0.00 56.0 -- 73.6 0.0
07/08/2019 11:00 224.50 0.00 55.9 -- 74.7 0.0
07/08/2019 10:00 224.50 0.00 55.9 -- 72.3 0.0
07/08/2019 09:00 224.51 0.00 55.9 -- 65.8 0.0
07/08/2019 08:00 224.51 0.00 55.9 -- 56.5 0.0
07/08/2019 07:00 224.51 0.00 55.8 -- 52.3 0.0
07/08/2019 06:00 224.51 0.00 55.8 -- 52.0 0.0
07/08/2019 05:00 224.51 0.00 55.7 -- 53.0 0.0
07/08/2019 04:00 224.51 0.00 56.0 -- 53.6 0.0
07/08/2019 03:00 224.51 0.00 56.0 -- 55.0 0.0
07/08/2019 02:00 224.51 0.00 55.9 -- 56.1 0.0
07/08/2019 01:00 224.51 0.00 56.0 -- 57.9 0.0
07/08/2019 00:00 224.51 0.00 55.8 0.00 60.1 0.0
07/07/2019 23:00 224.51 0.00 56.0 -- 61.4 0.0
07/07/2019 22:00 224.51 0.00 56.2 -- 63.9 0.0
07/07/2019 21:00 224.51 0.00 55.7 -- 69.8 0.0
07/07/2019 20:00 224.51 0.00 56.0 -- 75.4 0.0
07/07/2019 19:00 224.52 0.00 55.2 -- 81.8 0.0
07/07/2019 18:00 224.51 0.00 56.3 -- 83.3 0.0
07/07/2019 17:00 224.52 0.00 55.9 -- 83.4 0.0
07/07/2019 16:00 224.52 0.00 55.9 -- 80.8 0.0
07/07/2019 15:00 224.52 0.00 56.4 -- 80.1 0.0
07/07/2019 14:00 224.52 0.00 55.5 -- 76.9 0.0
07/07/2019 13:00 224.52 0.00 55.6 -- 75.9 0.0
07/07/2019 12:00 224.52 0.00 56.2 -- 76.2 0.0
07/07/2019 11:00 224.52 0.00 55.7 -- 70.2 0.0
07/07/2019 10:00 224.52 0.00 55.9 -- 68.7 0.3
07/07/2019 09:00 224.53 0.00 55.6 -- 65.1 0.8
07/07/2019 08:00 224.53 0.00 56.0 -- 63.0 0.5
07/07/2019 07:00 224.52 0.00 56.1 -- 62.8 0.5
07/07/2019 06:00 224.52 0.00 55.8 -- 63.6 0.8
07/07/2019 05:00 224.53 0.00 55.8 -- 66.5 1.0
07/07/2019 04:00 224.52 0.00 55.6 -- 66.9 0.5
07/07/2019 03:00 224.53 0.00 55.9 -- 68.2 1.0
07/07/2019 02:00 224.53 0.00 55.5 -- 69.8 1.0
07/07/2019 01:00 224.53 0.00 55.3 -- 70.9 0.8
07/07/2019 00:00 224.53 0.00 55.3 0.00 72.0 1.0
07/06/2019 23:00 224.53 0.00 54.9 -- 72.2 1.0
07/06/2019 22:00 224.53 0.01 56.2 -- 72.3 1.0
07/06/2019 21:00 224.53 0.01 55.3 -- 73.2 0.5
07/06/2019 20:00 224.53 0.00 56.2 -- 73.3 1.0
07/06/2019 19:00 224.53 0.13 56.1 -- 73.5 0.3
07/06/2019 18:00 224.52 0.00 54.8 -- 77.8 0.0
07/06/2019 17:00 224.52 0.00 55.6 -- 78.7 0.0
07/06/2019 16:00 224.52 0.00 55.5 -- 85.4 0.0
07/06/2019 15:00 224.51 0.00 55.0 -- 90.4 0.0
07/06/2019 14:00 224.52 0.00 55.2 -- 89.0 0.0
07/06/2019 13:00 224.52 0.00 55.3 -- 87.8 0.0
07/06/2019 12:00 224.52 0.00 55.6 -- 87.3 0.0
07/06/2019 11:00 224.52 0.00 55.6 -- 83.6 0.0
07/06/2019 10:00 224.51 0.00 55.3 -- 80.8 0.0
07/06/2019 09:00 224.52 0.00 55.1 -- 77.3 0.0
07/06/2019 08:00 224.52 0.00 55.3 -- 73.4 0.0
07/06/2019 07:00 224.52 0.00 55.3 -- 68.7 0.0
07/06/2019 06:00 224.52 0.00 55.0 -- 69.8 0.0
07/06/2019 05:00 224.52 0.00 55.3 -- 68.4 0.0
07/06/2019 04:00 224.53 0.00 56.3 -- 67.7 0.3
07/06/2019 03:00 224.52 0.00 55.1 -- 68.5 0.0
07/06/2019 02:00 224.52 0.00 55.6 -- 69.5 0.0
07/06/2019 01:00 224.52 0.00 55.3 -- 70.9 0.3
07/06/2019 00:00 224.52 0.00 55.6 0.15 72.5 0.0
07/05/2019 23:00 224.52 0.00 55.7 -- 71.8 0.0
07/05/2019 22:00 224.52 0.00 55.2 -- 74.3 0.3
07/05/2019 21:00 224.52 0.00 55.1 -- 77.8 0.3
07/05/2019 20:00 224.53 0.00 55.2 -- 85.4 0.8
07/05/2019 19:00 224.52 0.00 55.5 -- 87.8 0.5
07/05/2019 18:00 224.53 0.00 55.4 -- 89.8 0.3
07/05/2019 17:00 224.53 0.00 54.8 -- 89.3 1.0
07/05/2019 16:00 224.54 0.00 55.4 -- 89.9 0.8
07/05/2019 15:00 224.51 0.00 55.3 -- 89.7 0.8
07/05/2019 14:00 224.53 0.00 55.6 -- 89.5 1.0
07/05/2019 13:00 224.53 0.00 55.5 -- 87.9 1.0
07/05/2019 12:00 224.53 0.00 55.0 -- 85.0 1.0
07/05/2019 11:00 224.53 0.00 55.2 -- 83.2 1.0
07/05/2019 10:00 224.53 0.00 55.4 -- 81.6 1.0
07/05/2019 09:00 224.53 0.00 55.4 -- 72.0 1.0
07/05/2019 08:00 224.53 0.00 55.3 -- 64.6 1.0
07/05/2019 07:00 224.53 0.00 55.2 -- 62.4 1.0
07/05/2019 06:00 224.53 0.00 55.1 -- 61.6 1.0
07/05/2019 05:00 224.54 0.00 55.3 -- 61.9 1.0
07/05/2019 04:00 224.54 0.00 55.2 -- 62.5 1.0
07/05/2019 03:00 224.53 0.00 55.2 -- 63.5 1.0
07/05/2019 02:00 224.53 0.00 55.2 -- 64.5 1.0
07/05/2019 01:00 224.54 0.00 55.5 -- 65.5 1.0
07/05/2019 00:00 224.54 0.00 55.3 0.00 66.5 1.0
07/04/2019 23:00 224.54 0.00 55.2 -- 68.1 1.0
07/04/2019 22:00 224.54 0.00 55.2 -- 70.7 1.0
07/04/2019 21:00 224.54 0.00 55.1 -- 75.1 1.0
07/04/2019 20:00 224.54 0.00 54.9 -- 83.8 1.0
07/04/2019 19:00 224.54 0.00 55.3 -- 83.9 1.0
07/04/2019 18:00 224.54 0.00 55.4 -- 88.3 1.0
07/04/2019 17:00 224.54 0.00 55.1 -- 89.9 1.0
07/04/2019 16:00 224.54 0.00 55.3 -- 90.8 1.0
07/04/2019 15:00 224.54 0.00 55.2 -- 87.8 1.0
07/04/2019 14:00 224.55 0.00 55.6 -- 87.9 1.0
07/04/2019 13:00 224.54 0.00 55.5 -- 87.5 1.0
07/04/2019 12:00 224.54 0.00 55.1 -- 85.4 1.0
07/04/2019 11:00 224.54 0.00 55.2 -- 86.1 1.0
07/04/2019 10:00 224.55 0.00 55.5 -- 81.5 1.0
07/04/2019 09:00 224.55 0.00 55.7 -- 73.0 1.0
07/04/2019 08:00 224.55 0.00 55.1 -- 65.8 1.0
07/04/2019 07:00 224.55 0.00 54.8 -- 61.0 1.0
07/04/2019 06:00 224.55 0.00 55.6 -- 61.8 1.0
07/04/2019 05:00 224.55 0.00 55.5 -- 63.1 1.0
07/04/2019 04:00 224.55 0.00 55.4 -- 64.4 1.0
07/04/2019 03:00 224.55 0.00 55.2 -- 65.8 1.0
07/04/2019 02:00 224.55 0.00 55.3 -- 67.0 1.0
07/04/2019 01:00 224.55 0.00 55.3 -- 67.9 1.0
07/04/2019 00:00 224.55 0.00 55.1 0.00 69.4 1.0
07/03/2019 23:00 224.55 0.00 55.4 -- 70.8 1.0
07/03/2019 22:00 224.55 0.00 55.3 -- 72.7 1.3
07/03/2019 21:00 224.55 0.00 55.0 -- 76.9 1.0
07/03/2019 20:00 224.55 0.00 55.3 -- 84.3 1.3
07/03/2019 19:00 224.55 0.00 55.2 -- 88.1 1.0
07/03/2019 18:00 224.55 0.00 55.0 -- 87.2 1.5
07/03/2019 17:00 224.57 0.00 54.8 -- 87.3 1.5
07/03/2019 16:00 224.55 0.00 54.8 -- 89.3 1.3
07/03/2019 15:00 224.56 0.00 55.4 -- 87.8 1.5
07/03/2019 14:00 224.56 0.00 55.9 -- 87.1 2.0
07/03/2019 13:00 224.55 0.00 55.1 -- 85.9 1.8
07/03/2019 12:00 224.56 0.00 55.2 -- 84.8 2.0
07/03/2019 11:00 224.56 0.00 55.2 -- 81.8 2.0
07/03/2019 10:00 224.56 0.00 54.9 -- 78.8 2.0
07/03/2019 09:00 224.56 0.00 54.8 -- 70.4 2.0
07/03/2019 08:00 224.56 0.00 55.7 -- 62.8 2.0
07/03/2019 07:00 224.56 0.00 55.4 -- 59.5 2.0
07/03/2019 06:00 224.56 0.00 55.2 -- 59.4 2.0
07/03/2019 05:00 224.56 0.00 55.0 -- 59.6 2.0
07/03/2019 04:00 224.56 0.00 55.2 -- 60.5 2.0
07/03/2019 03:00 224.57 0.00 55.2 -- 61.4 2.0
07/03/2019 02:00 224.57 0.00 55.2 -- 63.0 2.0
07/03/2019 01:00 224.57 0.00 55.0 -- 64.2 2.0
07/03/2019 00:00 224.57 0.00 55.0 0.00 65.8 2.0
07/02/2019 23:00 224.57 0.00 55.2 -- 68.1 2.0
07/02/2019 22:00 224.57 0.00 55.3 -- 70.7 2.0
07/02/2019 21:00 224.56 0.00 55.4 -- 74.4 2.0
07/02/2019 20:00 224.57 0.00 55.3 -- 83.0 2.0
07/02/2019 19:00 224.57 0.00 55.5 -- 86.5 2.0
07/02/2019 18:00 224.57 0.00 55.1 -- 86.7 2.5
07/02/2019 17:00 224.57 0.00 55.1 -- 86.6 2.3
07/02/2019 16:00 224.57 0.00 55.7 -- 86.0 2.3
07/02/2019 15:00 224.57 0.00 55.0 -- 85.2 2.8
07/02/2019 14:00 224.57 0.00 55.0 -- 83.3 2.8
07/02/2019 13:00 224.57 0.00 55.4 -- 81.5 2.5
07/02/2019 12:00 224.57 0.00 55.4 -- 80.1 2.5
07/02/2019 11:00 224.58 0.00 55.2 -- 74.4 3.0
07/02/2019 10:00 224.58 0.00 55.3 -- 72.1 3.0
07/02/2019 09:00 224.58 0.00 55.6 -- 67.2 3.0
07/02/2019 08:00 224.57 0.00 55.4 -- 65.9 2.8
07/02/2019 07:00 224.58 0.00 55.1 -- 64.1 2.8
07/02/2019 06:00 224.58 0.00 55.1 -- 63.9 3.0
07/02/2019 05:00 224.58 0.00 55.3 -- 62.7 3.0
07/02/2019 04:00 224.57 0.00 55.5 -- 62.1 2.8
07/02/2019 03:00 224.58 0.00 55.6 -- 62.6 3.0
07/02/2019 02:00 224.57 0.00 55.2 -- 62.4 2.8
07/02/2019 01:00 224.58 0.00 55.1 -- 62.4 3.0
07/02/2019 00:00 224.58 0.00 55.1 0.00 63.9 3.0
07/01/2019 23:00 224.58 0.00 55.0 -- 65.9 3.0
07/01/2019 22:00 224.58 0.00 55.4 -- 68.3 3.0
07/01/2019 21:00 224.58 0.00 54.3 -- 73.9 3.0
07/01/2019 20:00 224.58 0.00 55.2 -- 83.7 3.0
07/01/2019 19:00 224.58 0.00 54.7 -- 83.4 3.0
07/01/2019 18:00 224.59 0.00 55.6 -- 82.8 3.0
07/01/2019 17:00 224.58 0.00 54.1 -- 82.3 3.0
07/01/2019 16:00 224.55 0.00 55.8 -- 81.7 1.5
07/01/2019 15:00 224.55 0.00 54.6 -- 80.9 1.3
07/01/2019 14:00 224.55 -- 54.5 -- 79.3 1.3
07/01/2019 13:00 224.56 -- 55.7 -- 77.7 2.0
07/01/2019 12:00 224.56 0.00 54.7 -- 73.5 2.0
07/01/2019 11:00 224.56 0.00 55.0 -- 73.1 2.0
07/01/2019 10:00 224.56 0.00 55.1 -- 70.7 2.0
07/01/2019 09:00 224.56 0.00 54.9 -- 68.0 2.0
07/01/2019 08:00 224.56 0.00 54.9 -- 64.6 2.0
07/01/2019 07:00 224.56 0.00 55.2 -- 59.5 2.0
07/01/2019 06:00 224.56 0.00 54.7 -- 57.8 2.0
07/01/2019 05:00 224.56 0.00 55.0 -- 56.9 2.0
07/01/2019 04:00 224.56 0.00 54.7 -- 57.5 2.0
07/01/2019 03:00 224.56 0.00 54.7 -- 57.9 2.0
07/01/2019 02:00 224.57 0.00 55.4 -- 58.0 2.0
07/01/2019 01:00 224.56 0.00 54.3 -- 59.0 2.0
07/01/2019 00:00 224.57 0.00 55.3 -- 59.4 2.0
06/30/2019 23:00 224.57 0.00 54.7 -- 59.0 2.0
06/30/2019 22:00 224.57 0.00 55.3 -- 60.7 2.0
06/30/2019 21:00 224.57 0.00 54.8 -- 63.5 2.3
06/30/2019 20:00 224.56 0.00 55.2 -- 66.0 1.8
06/30/2019 19:00 224.57 0.11 56.5 -- 64.6 2.5
06/30/2019 18:00 224.57 0.00 54.7 -- 69.1 2.0
06/30/2019 17:00 224.56 0.00 55.0 -- 65.8 2.0
06/30/2019 16:00 224.57 0.01 54.6 -- 64.5 2.0
06/30/2019 15:00 224.56 0.00 54.5 -- 73.6 2.0
06/30/2019 14:00 224.57 0.02 55.5 -- 68.7 2.0
06/30/2019 13:00 224.57 0.00 54.9 -- 72.9 2.0
06/30/2019 12:00 224.57 0.00 55.2 -- 71.1 2.0
06/30/2019 11:00 224.57 0.00 54.3 -- 72.5 2.0
06/30/2019 10:00 224.57 0.01 54.8 -- 70.7 2.0
06/30/2019 09:00 224.56 0.00 54.0 -- 66.4 2.0
06/30/2019 08:00 224.57 0.00 55.2 -- 63.9 2.0
06/30/2019 07:00 224.57 0.00 54.7 -- 61.9 2.0
06/30/2019 06:00 224.56 0.00 55.6 -- 61.3 2.0
06/30/2019 05:00 224.57 0.00 54.3 -- 62.9 2.0
06/30/2019 04:00 224.57 0.00 53.9 -- 62.9 2.0
06/30/2019 03:00 224.56 0.01 55.4 -- 63.7 2.3
06/30/2019 02:00 224.57 0.01 53.7 -- 64.7 2.8
06/30/2019 01:00 224.57 0.54 54.5 -- 65.6 1.3
06/30/2019 00:00 224.54 0.00 54.6 0.71 66.7 1.0
06/29/2019 23:00 224.54 0.00 54.8 -- 67.3 1.0
06/29/2019 22:00 224.54 0.00 54.1 -- 69.0 1.0
06/29/2019 21:00 224.54 0.00 54.7 -- 71.7 1.0
06/29/2019 20:00 224.54 0.00 54.6 -- 77.0 1.0
06/29/2019 19:00 224.55 0.00 54.6 -- 81.5 1.0
06/29/2019 18:00 224.54 0.00 54.5 -- 79.0 1.0
06/29/2019 17:00 224.55 0.00 54.6 -- 78.9 1.0
06/29/2019 16:00 224.54 0.00 54.3 -- 78.7 1.0
06/29/2019 15:00 224.54 0.00 54.5 -- 78.3 1.0
06/29/2019 14:00 224.55 0.00 54.5 -- 75.3 1.0
06/29/2019 13:00 224.55 0.00 54.4 -- 73.1 1.0
06/29/2019 12:00 224.55 0.00 55.0 -- 72.1 1.0
06/29/2019 11:00 224.55 0.00 54.3 -- 71.3 1.0
06/29/2019 10:00 224.54 0.01 53.8 -- 67.8 1.0
06/29/2019 09:00 224.55 0.00 54.9 -- 67.4 1.0
06/29/2019 08:00 224.54 0.00 54.3 -- 66.2 1.0
06/29/2019 07:00 224.54 0.04 54.3 -- 65.3 1.0
06/29/2019 06:00 224.54 0.00 54.4 -- 67.8 1.0
06/29/2019 05:00 224.55 0.00 54.5 -- 69.8 1.0
06/29/2019 04:00 224.55 0.00 54.5 -- 68.9 1.0
06/29/2019 03:00 224.55 0.00 54.5 -- 67.4 1.0
06/29/2019 02:00 224.54 0.00 54.4 -- 68.0 1.0
06/29/2019 01:00 224.55 0.00 54.2 -- 68.5 1.0
06/29/2019 00:00 224.55 0.00 54.8 0.05 68.5 1.0
06/28/2019 23:00 224.55 0.00 54.5 -- 69.2 1.0
06/28/2019 22:00 224.54 0.00 53.8 -- 71.1 1.0
06/28/2019 21:00 224.55 0.00 54.3 -- 74.4 1.0
06/28/2019 20:00 224.55 0.00 54.6 -- 83.7 1.0
06/28/2019 19:00 224.54 0.00 53.7 -- 89.9 1.0
06/28/2019 18:00 224.55 0.00 54.2 -- 90.7 1.5
06/28/2019 17:00 224.55 0.00 54.5 -- 88.1 1.0
06/28/2019 16:00 224.56 0.00 54.4 -- 89.3 1.3
06/28/2019 15:00 224.55 0.00 53.4 -- 87.0 1.0
06/28/2019 14:00 224.55 0.00 54.5 -- 87.0 1.5
06/28/2019 13:00 224.56 0.00 54.2 -- 84.0 1.8
06/28/2019 12:00 224.56 0.00 54.0 -- 80.5 1.5
06/28/2019 11:00 224.55 0.00 54.1 -- 79.5 1.0
06/28/2019 10:00 224.55 0.00 54.4 -- 76.1 2.0
06/28/2019 09:00 224.56 0.00 53.9 -- 65.9 1.5
06/28/2019 08:00 224.55 0.00 54.2 -- 59.9 1.3
06/28/2019 07:00 224.56 0.00 54.0 -- 57.6 2.0
06/28/2019 06:00 224.56 0.00 54.1 -- 58.0 2.0
06/28/2019 05:00 224.55 0.00 54.2 -- 59.3 1.3
06/28/2019 04:00 224.56 0.00 54.4 -- 60.2 1.8
06/28/2019 03:00 224.55 0.00 54.1 -- 60.3 1.5
06/28/2019 02:00 224.56 0.00 53.8 -- 60.5 2.0
06/28/2019 01:00 224.56 0.00 53.7 -- 60.9 2.0
06/28/2019 00:00 224.56 0.00 54.7 0.00 62.1 2.0
06/27/2019 23:00 224.56 0.00 54.1 -- 63.5 2.0
06/27/2019 22:00 224.56 0.00 53.9 -- 65.5 2.0
06/27/2019 21:00 224.56 0.00 54.1 -- 69.6 2.0
06/27/2019 20:00 224.56 0.00 54.3 -- 71.2 2.0
06/27/2019 19:00 224.56 0.00 54.0 -- 75.3 2.0
06/27/2019 18:00 224.56 0.00 53.8 -- 79.8 2.0
06/27/2019 17:00 224.56 0.00 54.1 -- 78.8 2.0
06/27/2019 16:00 224.56 0.00 54.0 -- 80.4 2.0
06/27/2019 15:00 224.57 0.00 54.1 -- 78.8 2.0
06/27/2019 14:00 224.57 0.00 54.0 -- 75.8 2.0
06/27/2019 13:00 224.56 0.00 53.8 -- 74.3 2.0
06/27/2019 12:00 224.57 0.00 54.5 -- 73.3 2.0
06/27/2019 11:00 224.57 0.00 54.0 -- 67.1 2.0
06/27/2019 10:00 224.57 0.00 53.9 -- 64.5 2.0
06/27/2019 09:00 224.57 0.00 54.1 -- 64.9 2.0
06/27/2019 08:00 224.57 0.00 53.9 -- 62.4 2.0
06/27/2019 07:00 224.57 0.00 54.2 -- 60.2 2.0
06/27/2019 06:00 224.57 0.00 54.4 -- 60.8 2.0
06/27/2019 05:00 224.57 0.00 54.1 -- 60.6 2.0
06/27/2019 04:00 224.57 0.00 53.5 -- 60.8 2.0
06/27/2019 03:00 224.56 0.00 54.3 -- 61.3 2.0
06/27/2019 02:00 224.57 0.00 53.6 -- 61.8 2.3
06/27/2019 01:00 224.57 0.00 54.4 -- 61.7 2.0
06/27/2019 00:00 224.57 0.00 54.2 0.00 61.8 2.0
06/26/2019 23:00 224.57 0.00 54.2 -- 62.9 2.0
06/26/2019 22:00 224.57 0.00 54.3 -- 62.1 2.0
06/26/2019 21:00 224.57 0.00 54.0 -- 65.0 2.5
06/26/2019 20:00 224.57 0.00 53.9 -- 70.0 2.0
06/26/2019 19:00 224.57 0.00 54.0 -- 72.2 2.8
06/26/2019 18:00 224.58 0.00 54.2 -- 78.9 2.8
06/26/2019 17:00 224.58 0.00 54.1 -- 80.9 2.8
06/26/2019 16:00 224.58 0.00 54.2 -- 80.9 2.8
06/26/2019 15:00 224.58 0.00 54.3 -- 77.3 3.0
06/26/2019 14:00 224.58 0.00 54.1 -- 77.3 3.0
06/26/2019 13:00 224.58 0.00 54.2 -- 73.8 2.5
06/26/2019 12:00 224.57 0.00 54.4 -- 71.4 2.8
06/26/2019 11:00 224.58 0.00 54.0 -- 69.3 3.0
06/26/2019 10:00 224.58 0.00 53.7 -- 67.3 3.0
06/26/2019 09:00 224.58 0.00 54.3 -- 65.0 3.0
06/26/2019 08:00 224.58 0.00 54.4 -- 64.3 3.0
06/26/2019 07:00 224.58 0.00 54.1 -- 64.1 3.0
06/26/2019 06:00 224.58 0.00 53.9 -- 64.0 3.0
06/26/2019 05:00 224.58 0.00 54.1 -- 64.5 3.0
06/26/2019 04:00 224.58 0.00 54.2 -- 65.3 3.0
06/26/2019 03:00 224.59 0.00 53.9 -- 65.6 3.0
06/26/2019 02:00 224.58 0.00 53.7 -- 65.5 3.0
06/26/2019 01:00 224.58 0.00 54.3 -- 65.7 3.0
06/26/2019 00:00 224.58 0.01 54.4 0.00 65.9 2.8
06/25/2019 23:00 224.58 0.00 53.9 -- 65.8 2.8
06/25/2019 22:00 224.58 0.01 53.9 -- 66.3 3.0
06/25/2019 21:00 224.58 0.21 54.1 -- 64.9 2.3
06/25/2019 20:00 224.56 0.04 54.2 -- 64.3 1.5
06/25/2019 19:00 224.55 0.03 53.7 -- 63.9 1.0
06/25/2019 18:00 224.55 0.01 53.7 -- 63.1 1.5
06/25/2019 17:00 224.57 0.00 53.7 -- 62.6 1.8
06/25/2019 16:00 224.55 0.01 54.2 -- 63.4 1.0
06/25/2019 15:00 224.55 0.02 54.0 -- 63.9 1.5
06/25/2019 14:00 224.55 0.00 54.5 -- 65.3 1.0
06/25/2019 13:00 224.55 0.00 53.8 -- 67.0 1.0
06/25/2019 12:00 224.55 0.00 53.7 -- 67.0 1.0
06/25/2019 11:00 224.55 0.00 54.5 -- 65.2 1.0
06/25/2019 10:00 224.55 0.00 54.0 -- 62.9 1.0
06/25/2019 09:00 224.55 0.00 53.4 -- 61.4 1.0
06/25/2019 08:00 224.55 0.00 54.1 -- 58.5 1.3
06/25/2019 07:00 224.55 0.00 54.3 -- 54.5 1.0
06/25/2019 06:00 224.55 0.00 54.2 -- 52.8 1.0
06/25/2019 05:00 224.55 0.00 53.9 -- 53.3 1.0
06/25/2019 04:00 224.55 0.00 53.8 -- 54.8 1.3
06/25/2019 03:00 224.55 0.00 53.7 -- 54.5 1.0
06/25/2019 02:00 224.56 0.00 53.8 -- 55.8 1.8
06/25/2019 01:00 224.55 0.00 54.1 -- 56.7 1.5
06/25/2019 00:00 224.56 0.00 53.8 0.34 57.5 1.8
06/24/2019 23:00 224.55 0.00 53.5 -- 58.5 1.5
06/24/2019 22:00 224.55 0.00 53.7 -- 61.0 2.0
06/24/2019 21:00 224.56 0.00 54.1 -- 68.3 2.0
06/24/2019 20:00 224.56 0.00 53.7 -- 73.1 2.0
06/24/2019 19:00 224.56 0.00 53.1 -- 75.5 2.0
06/24/2019 18:00 224.56 0.00 53.8 -- 79.0 1.8
06/24/2019 17:00 224.55 0.00 54.1 -- 82.8 1.8
06/24/2019 16:00 224.56 0.00 54.1 -- 82.1 1.8
06/24/2019 15:00 224.56 0.00 53.6 -- 80.5 1.8
06/24/2019 14:00 224.57 0.00 53.2 -- 80.2 2.3
06/24/2019 13:00 224.57 0.00 53.5 -- 77.7 2.3
06/24/2019 12:00 224.56 0.00 53.6 -- 78.1 2.0
06/24/2019 11:00 224.56 0.00 53.3 -- 74.6 2.0
06/24/2019 10:00 224.57 0.00 53.8 -- 72.4 2.0
06/24/2019 09:00 224.56 0.00 53.3 -- 68.0 2.0
06/24/2019 08:00 224.57 0.00 53.4 -- 63.0 2.0
06/24/2019 07:00 224.57 0.00 53.7 -- 61.4 2.0
06/24/2019 06:00 224.57 0.00 53.4 -- 62.6 2.0
06/24/2019 05:00 224.57 0.00 53.4 -- 61.3 2.0
06/24/2019 04:00 224.57 0.00 53.0 -- 59.3 2.0
06/24/2019 03:00 224.57 0.00 54.1 -- 58.5 2.0
06/24/2019 02:00 224.57 0.00 53.4 -- 59.3 2.0
06/24/2019 01:00 224.57 0.00 53.2 -- 61.6 2.0
06/24/2019 00:00 224.57 0.00 53.6 0.00 62.8 2.0
06/23/2019 23:00 224.57 0.00 53.5 -- 71.3 2.0
06/23/2019 22:00 224.57 0.00 53.4 -- 70.4 2.0
06/23/2019 21:00 224.58 0.00 53.3 -- 73.3 2.5
06/23/2019 20:00 224.58 0.00 53.4 -- 83.0 2.5
06/23/2019 19:00 224.57 0.00 53.7 -- 82.9 2.8
06/23/2019 18:00 224.58 0.00 53.1 -- 83.9 3.3
06/23/2019 17:00 224.59 0.00 53.4 -- 83.0 3.0
06/23/2019 16:00 224.56 0.00 53.4 -- 82.6 2.5
06/23/2019 15:00 224.57 0.00 53.5 -- 81.0 2.3
06/23/2019 14:00 224.59 0.00 53.3 -- 80.0 2.5
06/23/2019 13:00 224.58 0.00 53.1 -- 77.6 3.5
06/23/2019 12:00 224.58 0.00 53.1 -- 76.6 3.0
06/23/2019 11:00 224.58 0.00 53.4 -- 73.4 3.3
06/23/2019 10:00 224.59 0.00 53.6 -- 70.2 3.0
06/23/2019 09:00 224.58 0.00 53.4 -- 66.8 3.0
06/23/2019 08:00 224.58 0.00 53.5 -- 63.9 2.8
06/23/2019 07:00 224.59 0.00 53.4 -- 61.3 3.0
06/23/2019 06:00 224.59 0.00 53.4 -- 61.1 3.0
06/23/2019 05:00 224.59 0.00 53.4 -- 61.3 3.0
06/23/2019 04:00 224.59 0.00 53.3 -- 61.4 3.0
06/23/2019 03:00 224.59 0.00 53.7 -- 62.5 3.0
06/23/2019 02:00 224.59 0.00 53.3 -- 62.1 3.3
06/23/2019 01:00 224.59 0.00 53.1 -- 63.4 3.0
06/23/2019 00:00 224.59 0.00 54.3 0.00 64.1 3.0
06/22/2019 23:00 224.59 0.00 53.6 -- 64.7 3.0
06/22/2019 22:00 224.59 0.00 53.3 -- 66.0 3.3
06/22/2019 21:00 224.58 0.00 53.3 -- 72.1 3.0
06/22/2019 20:00 224.59 0.00 54.2 -- 76.1 4.0
06/22/2019 19:00 224.59 0.00 53.3 -- 77.3 4.0
06/22/2019 18:00 224.58 0.00 54.1 -- 77.2 3.0
06/22/2019 17:00 224.57 0.00 53.5 -- 76.7 3.5
06/22/2019 16:00 224.56 0.00 53.4 -- 75.7 3.5
06/22/2019 15:00 224.59 0.00 53.0 -- 76.6 4.0
06/22/2019 14:00 224.59 0.00 53.5 -- 75.3 4.3
06/22/2019 13:00 224.61 0.00 53.9 -- 75.2 4.3
06/22/2019 12:00 224.62 0.00 53.7 -- 73.0 4.3
06/22/2019 11:00 224.61 0.00 53.4 -- 70.2 3.8
06/22/2019 10:00 224.61 0.00 53.2 -- 69.2 4.0
06/22/2019 09:00 224.61 0.00 53.7 -- 65.6 4.0
06/22/2019 08:00 224.60 0.00 53.8 -- 63.0 4.5
06/22/2019 07:00 224.61 0.00 53.6 -- 61.0 4.3
06/22/2019 06:00 224.61 0.00 53.6 -- 60.6 4.3
06/22/2019 05:00 224.62 0.00 53.2 -- 62.0 4.3
06/22/2019 04:00 224.60 0.00 53.5 -- 61.8 4.0
06/22/2019 03:00 224.61 0.00 53.3 -- 63.5 4.0
06/22/2019 02:00 224.61 0.00 53.9 -- 63.5 4.3
06/22/2019 01:00 224.60 0.00 53.1 -- 64.3 4.8
06/22/2019 00:00 224.61 0.00 53.6 0.00 65.5 4.3
06/21/2019 23:00 224.61 0.00 53.3 -- 65.7 4.3
06/21/2019 22:00 224.61 0.00 53.6 -- 66.8 4.0
06/21/2019 21:00 224.61 0.00 53.6 -- 67.2 4.3
06/21/2019 20:00 224.61 0.00 53.7 -- 67.8 4.3
06/21/2019 19:00 224.61 0.00 53.8 -- 66.6 4.0
06/21/2019 18:00 224.63 0.00 53.3 -- 67.5 4.8
06/21/2019 17:00 224.61 0.00 54.0 -- 68.8 4.3
06/21/2019 16:00 224.61 0.01 53.2 -- 69.1 5.0
06/21/2019 15:00 224.61 0.09 53.8 -- 64.7 4.5
06/21/2019 14:00 224.62 0.00 53.6 -- 70.8 4.5
06/21/2019 13:00 224.61 0.00 53.6 -- 67.8 4.0
06/21/2019 12:00 224.61 0.01 53.7 -- 64.6 4.3
06/21/2019 11:00 224.61 0.00 53.5 -- 63.5 4.0
06/21/2019 10:00 224.61 0.00 53.9 -- 61.4 4.3
06/21/2019 09:00 224.61 0.00 53.5 -- 60.2 4.0
06/21/2019 08:00 224.61 0.00 53.8 -- 59.8 4.0
06/21/2019 07:00 224.61 0.00 53.7 -- 59.4 4.0
06/21/2019 06:00 224.61 0.00 53.6 -- 59.3 4.8
06/21/2019 05:00 224.62 0.00 52.8 -- 59.5 4.3
06/21/2019 04:00 224.61 0.00 54.3 -- 59.7 4.8
06/21/2019 03:00 224.62 0.03 53.6 -- 59.3 5.0
06/21/2019 02:00 224.61 0.01 53.2 -- 59.0 4.0
06/21/2019 01:00 224.61 0.00 53.6 -- 58.9 4.0
06/21/2019 00:00 224.61 0.00 53.8 0.15 59.0 4.0
06/20/2019 23:00 224.61 0.00 53.4 -- 59.6 4.0
06/20/2019 22:00 224.61 0.01 53.3 -- 59.9 4.8
06/20/2019 21:00 -- -- -- -- 60.8 4.5
06/20/2019 20:00 -- -- -- -- 61.1 4.0
06/20/2019 19:00 -- -- -- -- 60.8 4.8
06/20/2019 18:00 -- -- -- -- 60.5 4.3
06/20/2019 17:00 -- -- -- -- 60.2 4.8
06/20/2019 16:00 -- -- -- -- 60.3 4.0
06/20/2019 15:00 -- -- -- -- 60.4 3.8
06/20/2019 14:00 -- -- -- -- 60.5 3.5
06/20/2019 13:00 -- -- -- -- 59.9 3.0
06/20/2019 12:00 -- -- -- -- 61.9 3.0
06/20/2019 11:00 -- -- -- -- 61.5 3.0
06/20/2019 10:00 -- -- -- -- 61.2 3.0
06/20/2019 09:00 -- -- -- -- 61.1 3.0
06/20/2019 08:00 -- -- -- -- 60.3 3.0
06/20/2019 07:00 -- -- -- -- 60.3 3.0
06/20/2019 06:00 -- -- -- -- 60.1 3.0
06/20/2019 05:00 -- -- -- -- 60.6 3.0
06/20/2019 04:00 -- -- -- -- 61.0 3.0
06/20/2019 03:00 -- -- -- -- 61.2 3.0
06/20/2019 02:00 -- -- -- -- 61.6 3.0
06/20/2019 01:00 -- -- -- -- 61.8 3.0
06/20/2019 00:00 -- -- -- 0.32 61.7 3.0